Time,TemperatureF,DewpointF,PressureIn,WindDirection,WindDirectionDegrees,WindSpeedMPH,WindSpeedGustMPH,Humidity,HourlyPrecipIn,Conditions,Clouds,dailyrainin,SoftwareType,DateUTC
2014-01-24 00:01:00,3.0,-2.0,30.24,SSE,168,2.0,2.0,79,0.00,,,0.00,Wunderground v.1.15,2014-01-24 05:01:00,
2014-01-24 00:03:00,3.0,-2.0,30.24,SSE,167,4.0,4.0,79,0.00,,,0.00,Wunderground v.1.15,2014-01-24 05:03:00,
2014-01-24 00:05:00,3.0,-2.0,30.24,SSE,167,0.0,4.0,79,0.00,,,0.00,Wunderground v.1.15,2014-01-24 05:05:00,
2014-01-24 00:06:00,3.0,-2.0,30.24,SSE,167,0.0,4.0,79,0.00,,,0.00,Wunderground v.1.15,2014-01-24 05:06:00,
2014-01-24 00:09:00,2.9,-2.1,30.24,SE,129,0.0,4.0,79,0.00,,,0.00,Wunderground v.1.15,2014-01-24 05:09:00,
2014-01-24 00:10:00,2.9,-2.1,30.24,East,89,2.0,2.0,79,0.00,,,0.00,Wunderground v.1.15,2014-01-24 05:10:00,
2014-01-24 00:13:00,2.8,-2.2,30.23,SSE,166,0.0,2.0,79,0.00,,,0.00,Wunderground v.1.15,2014-01-24 05:13:00,
2014-01-24 00:14:00,2.7,-2.3,30.24,SSE,166,0.0,2.0,79,0.00,,,0.00,Wunderground v.1.15,2014-01-24 05:14:00,
2014-01-24 00:17:00,2.7,-2.3,30.24,SE,128,0.0,3.0,79,0.00,,,0.00,Wunderground v.1.15,2014-01-24 05:17:00,
2014-01-24 00:20:00,2.6,-2.4,30.23,East,89,0.0,1.0,79,0.00,,,0.00,Wunderground v.1.15,2014-01-24 05:20:00,
2014-01-24 00:21:00,2.6,-2.4,30.23,East,89,0.0,1.0,79,0.00,,,0.00,Wunderground v.1.15,2014-01-24 05:21:00,
2014-01-24 00:25:00,2.5,-2.5,30.23,SSE,167,0.0,2.0,79,0.00,,,0.00,Wunderground v.1.15,2014-01-24 05:25:00,
2014-01-24 00:27:00,2.5,-2.5,30.24,SE,144,0.0,2.0,79,0.00,,,0.00,Wunderground v.1.15,2014-01-24 05:27:00,
2014-01-24 00:31:00,2.3,-2.7,30.24,SE,136,0.0,2.0,79,0.00,,,0.00,Wunderground v.1.15,2014-01-24 05:31:00,
2014-01-24 00:33:00,2.2,-2.8,30.24,SE,138,0.0,2.0,79,0.00,,,0.00,Wunderground v.1.15,2014-01-24 05:33:00,
2014-01-24 00:34:00,2.2,-2.8,30.24,SE,138,0.0,2.0,79,0.00,,,0.00,Wunderground v.1.15,2014-01-24 05:34:00,
2014-01-24 00:35:00,2.1,-2.7,30.24,SE,137,1.0,2.0,80,0.00,,,0.00,Wunderground v.1.15,2014-01-24 05:35:00,
2014-01-24 00:37:00,2.1,-2.7,30.24,SSE,168,1.0,2.0,80,0.00,,,0.00,Wunderground v.1.15,2014-01-24 05:37:00,
2014-01-24 00:41:00,1.9,-2.8,30.24,SSE,148,0.0,1.0,80,0.00,,,0.00,Wunderground v.1.15,2014-01-24 05:41:00,
2014-01-24 00:43:00,1.8,-2.9,30.24,SSE,167,0.0,1.0,80,0.00,,,0.00,Wunderground v.1.15,2014-01-24 05:43:00,
2014-01-24 00:45:00,1.8,-2.9,30.24,SSE,166,0.0,1.0,80,0.00,,,0.00,Wunderground v.1.15,2014-01-24 05:45:00,
2014-01-24 00:46:00,1.8,-2.9,30.24,SSE,166,0.0,1.0,80,0.00,,,0.00,Wunderground v.1.15,2014-01-24 05:46:00,
2014-01-24 00:50:00,1.7,-3.0,30.24,SSE,167,0.0,0.0,80,0.00,,,0.00,Wunderground v.1.15,2014-01-24 05:50:00,
2014-01-24 00:51:00,1.6,-3.1,30.24,SSE,167,1.0,1.0,80,0.00,,,0.00,Wunderground v.1.15,2014-01-24 05:51:00,
2014-01-24 00:52:00,1.6,-3.1,30.24,SSE,167,0.0,1.0,80,0.00,,,0.00,Wunderground v.1.15,2014-01-24 05:52:00,
2014-01-24 00:56:00,1.4,-3.3,30.24,SSE,167,0.0,1.0,80,0.00,,,0.00,Wunderground v.1.15,2014-01-24 05:56:00,
2014-01-24 00:57:00,1.4,-3.3,30.24,SSE,167,1.0,1.0,80,0.00,,,0.00,Wunderground v.1.15,2014-01-24 05:57:00,
2014-01-24 00:58:00,1.4,-3.3,30.24,SSE,167,0.0,1.0,80,0.00,,,0.00,Wunderground v.1.15,2014-01-24 05:58:00,
2014-01-24 00:59:00,1.3,-3.4,30.24,SSE,167,1.0,1.0,80,0.00,,,0.00,Wunderground v.1.15,2014-01-24 05:59:00,
2014-01-24 01:02:00,1.3,-3.4,30.24,SSE,167,0.0,0.0,80,0.00,,,0.00,Wunderground v.1.15,2014-01-24 06:02:00,
2014-01-24 01:04:00,1.3,-3.4,30.24,SSE,167,0.0,0.0,80,0.00,,,0.00,Wunderground v.1.15,2014-01-24 06:04:00,
2014-01-24 01:05:00,1.3,-3.4,30.24,SSE,167,0.0,0.0,80,0.00,,,0.00,Wunderground v.1.15,2014-01-24 06:05:00,
2014-01-24 01:07:00,1.3,-3.4,30.24,SSE,167,0.0,0.0,80,0.00,,,0.00,Wunderground v.1.15,2014-01-24 06:07:00,
2014-01-24 01:08:00,1.2,-3.5,30.24,SSE,167,1.0,1.0,80,0.00,,,0.00,Wunderground v.1.15,2014-01-24 06:08:00,
2014-01-24 01:10:00,1.1,-3.6,30.24,SSE,167,0.0,1.0,80,0.00,,,0.00,Wunderground v.1.15,2014-01-24 06:10:00,
2014-01-24 01:14:00,1.1,-3.6,30.24,SSE,167,0.0,1.0,80,0.00,,,0.00,Wunderground v.1.15,2014-01-24 06:14:00,
2014-01-24 01:15:00,1.0,-3.7,30.25,SSE,167,0.0,1.0,80,0.00,,,0.00,Wunderground v.1.15,2014-01-24 06:15:00,
2014-01-24 01:16:00,1.0,-3.7,30.25,SSE,167,0.0,1.0,80,0.00,,,0.00,Wunderground v.1.15,2014-01-24 06:16:00,
2014-01-24 01:17:00,1.0,-3.7,30.25,SSE,167,1.0,1.0,80,0.00,,,0.00,Wunderground v.1.15,2014-01-24 06:17:00,
2014-01-24 01:18:00,1.0,-3.7,30.25,SSE,167,2.0,2.0,80,0.00,,,0.00,Wunderground v.1.15,2014-01-24 06:18:00,
2014-01-24 01:20:00,1.0,-3.5,30.25,SE,144,1.0,2.0,81,0.00,,,0.00,Wunderground v.1.15,2014-01-24 06:20:00,
2014-01-24 01:22:00,0.9,-3.8,30.25,SE,143,0.0,0.0,80,0.00,,,0.00,Wunderground v.1.15,2014-01-24 06:22:00,
2014-01-24 01:23:00,1.0,-3.7,30.25,SSE,168,0.0,0.0,80,0.00,,,0.00,Wunderground v.1.15,2014-01-24 06:23:00,
2014-01-24 01:27:00,0.8,-3.9,30.25,SSE,162,0.0,0.0,80,0.00,,,0.00,Wunderground v.1.15,2014-01-24 06:27:00,
2014-01-24 01:28:00,0.7,-4.0,30.25,SSE,162,0.0,0.0,80,0.00,,,0.00,Wunderground v.1.15,2014-01-24 06:28:00,
2014-01-24 01:29:00,0.7,-4.0,30.25,SSE,162,0.0,0.0,80,0.00,,,0.00,Wunderground v.1.15,2014-01-24 06:29:00,
2014-01-24 01:33:00,0.5,-4.2,30.25,SSE,167,0.0,0.0,80,0.00,,,0.00,Wunderground v.1.15,2014-01-24 06:33:00,
2014-01-24 01:34:00,0.4,-4.3,30.25,SSE,167,0.0,0.0,80,0.00,,,0.00,Wunderground v.1.15,2014-01-24 06:34:00,
2014-01-24 01:35:00,0.4,-4.3,30.25,SSE,167,0.0,0.0,80,0.00,,,0.00,Wunderground v.1.15,2014-01-24 06:35:00,
2014-01-24 01:40:00,0.2,-4.5,30.25,NE,48,1.0,1.0,80,0.00,,,0.00,Wunderground v.1.15,2014-01-24 06:40:00,
2014-01-24 01:41:00,0.2,-4.5,30.25,NE,48,0.0,0.0,80,0.00,,,0.00,Wunderground v.1.15,2014-01-24 06:41:00,
2014-01-24 01:42:00,0.2,-4.5,30.26,NE,48,0.0,0.0,80,0.00,,,0.00,Wunderground v.1.15,2014-01-24 06:42:00,
2014-01-24 01:43:00,0.2,-4.5,30.26,NE,48,0.0,0.0,80,0.00,,,0.00,Wunderground v.1.15,2014-01-24 06:43:00,
2014-01-24 01:45:00,0.1,-4.6,30.26,SE,137,0.0,1.0,80,0.00,,,0.00,Wunderground v.1.15,2014-01-24 06:45:00,
2014-01-24 01:49:00,0.0,-4.7,30.26,SE,138,0.0,1.0,80,0.00,,,0.00,Wunderground v.1.15,2014-01-24 06:49:00,
2014-01-24 01:50:00,0.0,-4.7,30.26,SE,138,0.0,1.0,80,0.00,,,0.00,Wunderground v.1.15,2014-01-24 06:50:00,
2014-01-24 01:51:00,-0.1,-4.8,30.26,SE,141,1.0,1.0,80,0.00,,,0.00,Wunderground v.1.15,2014-01-24 06:51:00,
2014-01-24 01:56:00,-0.1,-4.8,30.26,SSE,167,0.0,2.0,80,0.00,,,0.00,Wunderground v.1.15,2014-01-24 06:56:00,
2014-01-24 01:57:00,0.0,-4.7,30.26,SSE,167,0.0,2.0,80,0.00,,,0.00,Wunderground v.1.15,2014-01-24 06:57:00,
2014-01-24 01:59:00,0.0,-5.0,30.26,SSE,167,0.0,2.0,79,0.00,,,0.00,Wunderground v.1.15,2014-01-24 06:59:00,
2014-01-24 02:01:00,-0.1,-5.1,30.26,SSE,167,0.0,1.0,79,0.00,,,0.00,Wunderground v.1.15,2014-01-24 07:01:00,
2014-01-24 02:02:00,-0.1,-4.8,30.26,ESE,104,2.0,2.0,80,0.00,,,0.00,Wunderground v.1.15,2014-01-24 07:02:00,
2014-01-24 02:04:00,-0.2,-5.2,30.26,SSE,167,0.0,2.0,79,0.00,,,0.00,Wunderground v.1.15,2014-01-24 07:04:00,
2014-01-24 02:06:00,-0.2,-5.2,30.26,SSE,168,0.0,2.0,79,0.00,,,0.00,Wunderground v.1.15,2014-01-24 07:06:00,
2014-01-24 02:07:00,-0.1,-5.1,30.26,SSE,167,0.0,2.0,79,0.00,,,0.00,Wunderground v.1.15,2014-01-24 07:07:00,
2014-01-24 02:10:00,-0.2,-5.2,30.26,East,84,1.0,2.0,79,0.00,,,0.00,Wunderground v.1.15,2014-01-24 07:10:00,
2014-01-24 02:12:00,-0.3,-5.3,30.26,East,83,0.0,1.0,79,0.00,,,0.00,Wunderground v.1.15,2014-01-24 07:12:00,
2014-01-24 02:13:00,-0.3,-5.3,30.26,East,83,0.0,1.0,79,0.00,,,0.00,Wunderground v.1.15,2014-01-24 07:13:00,
2014-01-24 02:16:00,-0.3,-5.0,30.26,East,84,1.0,1.0,80,0.00,,,0.00,Wunderground v.1.15,2014-01-24 07:16:00,
2014-01-24 02:17:00,-0.3,-5.0,30.26,East,87,1.0,2.0,80,0.00,,,0.00,Wunderground v.1.15,2014-01-24 07:17:00,
2014-01-24 02:18:00,-0.3,-5.3,30.26,East,88,0.0,2.0,79,0.00,,,0.00,Wunderground v.1.15,2014-01-24 07:18:00,
2014-01-24 02:21:00,-0.2,-5.2,30.26,East,87,0.0,1.0,79,0.00,,,0.00,Wunderground v.1.15,2014-01-24 07:21:00,
2014-01-24 02:22:00,-0.2,-5.2,30.26,East,87,0.0,1.0,79,0.00,,,0.00,Wunderground v.1.15,2014-01-24 07:22:00,
2014-01-24 02:23:00,-0.2,-5.4,30.26,ESE,122,1.0,1.0,78,0.00,,,0.00,Wunderground v.1.15,2014-01-24 07:23:00,
2014-01-24 02:24:00,-0.2,-5.4,30.26,ESE,122,0.0,1.0,78,0.00,,,0.00,Wunderground v.1.15,2014-01-24 07:24:00,
2014-01-24 02:26:00,-0.3,-5.5,30.27,ESE,122,0.0,1.0,78,0.00,,,0.00,Wunderground v.1.15,2014-01-24 07:26:00,
2014-01-24 02:27:00,-0.3,-5.5,30.27,ESE,122,1.0,1.0,78,0.00,,,0.00,Wunderground v.1.15,2014-01-24 07:27:00,
2014-01-24 02:28:00,-0.3,-5.5,30.27,ESE,122,0.0,1.0,78,0.00,,,0.00,Wunderground v.1.15,2014-01-24 07:28:00,
2014-01-24 02:29:00,-0.3,-5.5,30.27,ESE,122,0.0,1.0,78,0.00,,,0.00,Wunderground v.1.15,2014-01-24 07:29:00,
2014-01-24 02:31:00,-0.3,-5.5,30.27,ESE,122,0.0,0.0,78,0.00,,,0.00,Wunderground v.1.15,2014-01-24 07:31:00,
2014-01-24 02:32:00,-0.3,-5.5,30.27,ESE,123,0.0,0.0,78,0.00,,,0.00,Wunderground v.1.15,2014-01-24 07:32:00,
2014-01-24 02:33:00,-0.3,-5.5,30.27,ESE,123,0.0,0.0,78,0.00,,,0.00,Wunderground v.1.15,2014-01-24 07:33:00,
2014-01-24 02:34:00,-0.3,-5.5,30.27,ESE,123,0.0,1.0,78,0.00,,,0.00,Wunderground v.1.15,2014-01-24 07:34:00,
2014-01-24 02:37:00,-0.3,-5.3,30.27,SSE,167,1.0,1.0,79,0.00,,,0.00,Wunderground v.1.15,2014-01-24 07:37:00,
2014-01-24 02:38:00,-0.4,-5.6,30.27,NNE,30,1.0,1.0,78,0.00,,,0.00,Wunderground v.1.15,2014-01-24 07:38:00,
2014-01-24 02:39:00,-0.4,-5.6,30.26,WNW,303,0.0,1.0,78,0.00,,,0.00,Wunderground v.1.15,2014-01-24 07:39:00,
2014-01-24 02:42:00,-0.4,-5.6,30.26,East,101,1.0,1.0,78,0.00,,,0.00,Wunderground v.1.15,2014-01-24 07:42:00,
2014-01-24 02:43:00,-0.4,-5.6,30.26,East,100,1.0,1.0,78,0.00,,,0.00,Wunderground v.1.15,2014-01-24 07:43:00,
2014-01-24 02:44:00,-0.4,-5.4,30.27,East,101,0.0,1.0,79,0.00,,,0.00,Wunderground v.1.15,2014-01-24 07:44:00,
2014-01-24 02:47:00,-0.4,-5.4,30.27,East,101,0.0,2.0,79,0.00,,,0.00,Wunderground v.1.15,2014-01-24 07:47:00,
2014-01-24 02:48:00,-0.4,-5.4,30.27,East,100,1.0,2.0,79,0.00,,,0.00,Wunderground v.1.15,2014-01-24 07:48:00,
2014-01-24 02:49:00,-0.4,-5.6,30.26,East,100,0.0,2.0,78,0.00,,,0.00,Wunderground v.1.15,2014-01-24 07:49:00,
2014-01-24 02:53:00,-0.5,-5.7,30.27,ESE,102,0.0,1.0,78,0.00,,,0.00,Wunderground v.1.15,2014-01-24 07:53:00,
2014-01-24 02:54:00,-0.5,-5.5,30.27,ESE,102,0.0,1.0,79,0.00,,,0.00,Wunderground v.1.15,2014-01-24 07:54:00,
2014-01-24 02:55:00,-0.5,-5.5,30.27,ESE,102,0.0,1.0,79,0.00,,,0.00,Wunderground v.1.15,2014-01-24 07:55:00,
2014-01-24 02:58:00,-0.5,-5.7,30.27,ESE,122,0.0,2.0,78,0.00,,,0.00,Wunderground v.1.15,2014-01-24 07:58:00,
2014-01-24 02:59:00,-0.5,-5.7,30.27,SSE,167,1.0,2.0,78,0.00,,,0.00,Wunderground v.1.15,2014-01-24 07:59:00,
2014-01-24 03:02:00,-0.6,-5.8,30.27,SSE,167,0.0,0.0,78,0.00,,,0.00,Wunderground v.1.15,2014-01-24 08:02:00,
2014-01-24 03:03:00,-0.7,-5.9,30.27,ESE,117,0.0,3.0,78,0.00,,,0.00,Wunderground v.1.15,2014-01-24 08:03:00,
2014-01-24 03:04:00,-0.7,-5.9,30.27,ESE,117,0.0,3.0,78,0.00,,,0.00,Wunderground v.1.15,2014-01-24 08:04:00,
2014-01-24 03:05:00,-0.6,-5.6,30.27,ESE,117,1.0,3.0,79,0.00,,,0.00,Wunderground v.1.15,2014-01-24 08:05:00,
2014-01-24 03:07:00,-0.6,-5.6,30.27,SSE,167,0.0,3.0,79,0.00,,,0.00,Wunderground v.1.15,2014-01-24 08:07:00,
2014-01-24 03:08:00,-0.6,-5.8,30.27,SSE,167,1.0,3.0,78,0.00,,,0.00,Wunderground v.1.15,2014-01-24 08:08:00,
2014-01-24 03:09:00,-0.6,-5.8,30.27,SE,145,1.0,3.0,78,0.00,,,0.00,Wunderground v.1.15,2014-01-24 08:09:00,
2014-01-24 03:10:00,-0.6,-5.8,30.27,SSE,167,0.0,1.0,78,0.00,,,0.00,Wunderground v.1.15,2014-01-24 08:10:00,
2014-01-24 03:12:00,-0.6,-5.8,30.27,SSE,167,0.0,1.0,78,0.00,,,0.00,Wunderground v.1.15,2014-01-24 08:12:00,
2014-01-24 03:13:00,-0.6,-5.8,30.27,SSE,167,2.0,3.0,78,0.00,,,0.00,Wunderground v.1.15,2014-01-24 08:13:00,
2014-01-24 03:14:00,-0.6,-6.1,30.27,SSE,168,1.0,3.0,77,0.00,,,0.00,Wunderground v.1.15,2014-01-24 08:14:00,
2014-01-24 03:15:00,-0.6,-6.1,30.27,SSE,167,2.0,3.0,77,0.00,,,0.00,Wunderground v.1.15,2014-01-24 08:15:00,
2014-01-24 03:17:00,-0.6,-6.1,30.27,WSW,245,2.0,3.0,77,0.00,,,0.00,Wunderground v.1.15,2014-01-24 08:17:00,
2014-01-24 03:19:00,-0.5,-6.0,30.27,South,183,1.0,3.0,77,0.00,,,0.00,Wunderground v.1.15,2014-01-24 08:19:00,
2014-01-24 03:20:00,-0.5,-6.0,30.27,WSW,239,0.0,1.0,77,0.00,,,0.00,Wunderground v.1.15,2014-01-24 08:20:00,
2014-01-24 03:22:00,-0.5,-6.0,30.27,SW,215,0.0,1.0,77,0.00,,,0.00,Wunderground v.1.15,2014-01-24 08:22:00,
2014-01-24 03:24:00,-0.5,-6.0,30.27,South,183,1.0,1.0,77,0.00,,,0.00,Wunderground v.1.15,2014-01-24 08:24:00,
2014-01-24 03:25:00,-0.6,-6.1,30.27,SSW,195,0.0,2.0,77,0.00,,,0.00,Wunderground v.1.15,2014-01-24 08:25:00,
2014-01-24 03:29:00,-0.6,-6.1,30.27,South,183,2.0,2.0,77,0.00,,,0.00,Wunderground v.1.15,2014-01-24 08:29:00,
2014-01-24 03:30:00,-0.7,-6.2,30.27,South,183,2.0,2.0,77,0.00,,,0.00,Wunderground v.1.15,2014-01-24 08:30:00,
2014-01-24 03:34:00,-0.8,-6.3,30.27,West,264,3.0,4.0,77,0.00,,,0.00,Wunderground v.1.15,2014-01-24 08:34:00,
2014-01-24 03:35:00,-0.9,-6.4,30.27,West,280,1.0,4.0,77,0.00,,,0.00,Wunderground v.1.15,2014-01-24 08:35:00,
2014-01-24 03:36:00,-0.9,-6.4,30.27,SW,225,0.0,4.0,77,0.00,,,0.00,Wunderground v.1.15,2014-01-24 08:36:00,
2014-01-24 03:39:00,-1.0,-6.5,30.27,South,183,0.0,4.0,77,0.00,,,0.00,Wunderground v.1.15,2014-01-24 08:39:00,
2014-01-24 03:40:00,-1.0,-6.5,30.27,South,184,0.0,1.0,77,0.00,,,0.00,Wunderground v.1.15,2014-01-24 08:40:00,
2014-01-24 03:41:00,-1.1,-6.6,30.27,South,186,0.0,1.0,77,0.00,,,0.00,Wunderground v.1.15,2014-01-24 08:41:00,
2014-01-24 03:44:00,-1.2,-6.9,30.27,South,187,0.0,1.0,76,0.00,,,0.00,Wunderground v.1.15,2014-01-24 08:44:00,
2014-01-24 03:45:00,-1.2,-6.9,30.27,SW,231,2.0,2.0,76,0.00,,,0.00,Wunderground v.1.15,2014-01-24 08:45:00,
2014-01-24 03:46:00,-1.2,-6.9,30.27,South,183,1.0,2.0,76,0.00,,,0.00,Wunderground v.1.15,2014-01-24 08:46:00,
2014-01-24 03:47:00,-1.2,-6.9,30.27,South,183,0.0,2.0,76,0.00,,,0.00,Wunderground v.1.15,2014-01-24 08:47:00,
2014-01-24 03:49:00,-1.3,-6.8,30.27,South,183,1.0,2.0,77,0.00,,,0.00,Wunderground v.1.15,2014-01-24 08:49:00,
2014-01-24 03:50:00,-1.3,-6.8,30.27,South,183,0.0,0.0,77,0.00,,,0.00,Wunderground v.1.15,2014-01-24 08:50:00,
2014-01-24 03:51:00,-1.3,-6.8,30.27,South,183,0.0,1.0,77,0.00,,,0.00,Wunderground v.1.15,2014-01-24 08:51:00,
2014-01-24 03:52:00,-1.3,-6.8,30.27,South,183,1.0,1.0,77,0.00,,,0.00,Wunderground v.1.15,2014-01-24 08:52:00,
2014-01-24 03:55:00,-1.5,-7.0,30.27,South,183,0.0,3.0,77,0.00,,,0.00,Wunderground v.1.15,2014-01-24 08:55:00,
2014-01-24 03:57:00,-1.5,-7.0,30.27,South,183,2.0,3.0,77,0.00,,,0.00,Wunderground v.1.15,2014-01-24 08:57:00,
2014-01-24 03:58:00,-1.6,-7.1,30.27,WSW,246,1.0,3.0,77,0.00,,,0.00,Wunderground v.1.15,2014-01-24 08:58:00,
2014-01-24 04:01:00,-1.7,-7.2,30.27,SW,225,1.0,1.0,77,0.00,,,0.00,Wunderground v.1.15,2014-01-24 09:01:00,
2014-01-24 04:02:00,-1.8,-7.3,30.27,SW,225,1.0,1.0,77,0.00,,,0.00,Wunderground v.1.15,2014-01-24 09:02:00,
2014-01-24 04:03:00,-1.8,-7.3,30.28,SW,225,0.0,1.0,77,0.00,,,0.00,Wunderground v.1.15,2014-01-24 09:03:00,
2014-01-24 04:06:00,-1.9,-7.3,30.27,South,183,0.0,2.0,77,0.00,,,0.00,Wunderground v.1.15,2014-01-24 09:06:00,
2014-01-24 04:07:00,-1.9,-7.3,30.27,South,183,0.0,2.0,77,0.00,,,0.00,Wunderground v.1.15,2014-01-24 09:07:00,
2014-01-24 04:08:00,-1.9,-7.3,30.27,South,183,0.0,2.0,77,0.00,,,0.00,Wunderground v.1.15,2014-01-24 09:08:00,
2014-01-24 04:12:00,-2.0,-7.4,30.28,SW,218,1.0,1.0,77,0.00,,,0.00,Wunderground v.1.15,2014-01-24 09:12:00,
2014-01-24 04:13:00,-2.1,-7.5,30.27,South,183,0.0,1.0,77,0.00,,,0.00,Wunderground v.1.15,2014-01-24 09:13:00,
2014-01-24 04:14:00,-2.1,-7.5,30.27,South,183,0.0,1.0,77,0.00,,,0.00,Wunderground v.1.15,2014-01-24 09:14:00,
2014-01-24 04:17:00,-2.2,-7.6,30.27,SW,217,1.0,4.0,77,0.00,,,0.00,Wunderground v.1.15,2014-01-24 09:17:00,
2014-01-24 04:18:00,-2.2,-7.6,30.27,South,183,0.0,4.0,77,0.00,,,0.00,Wunderground v.1.15,2014-01-24 09:18:00,
2014-01-24 04:19:00,-2.2,-7.6,30.27,South,184,0.0,4.0,77,0.00,,,0.00,Wunderground v.1.15,2014-01-24 09:19:00,
2014-01-24 04:22:00,-2.3,-7.7,30.27,South,186,0.0,0.0,77,0.00,,,0.00,Wunderground v.1.15,2014-01-24 09:22:00,
2014-01-24 04:23:00,-2.3,-7.7,30.27,South,183,1.0,2.0,77,0.00,,,0.00,Wunderground v.1.15,2014-01-24 09:23:00,
2014-01-24 04:24:00,-2.4,-7.8,30.27,South,183,0.0,2.0,77,0.00,,,0.00,Wunderground v.1.15,2014-01-24 09:24:00,
2014-01-24 04:27:00,-2.5,-7.7,30.27,West,262,1.0,5.0,78,0.00,,,0.00,Wunderground v.1.15,2014-01-24 09:27:00,
2014-01-24 04:28:00,-2.6,-7.8,30.27,SSW,198,1.0,5.0,78,0.00,,,0.00,Wunderground v.1.15,2014-01-24 09:28:00,
2014-01-24 04:30:00,-2.6,-7.8,30.27,South,183,0.0,2.0,78,0.00,,,0.00,Wunderground v.1.15,2014-01-24 09:30:00,
2014-01-24 04:32:00,-2.6,-7.8,30.27,South,183,0.0,2.0,78,0.00,,,0.00,Wunderground v.1.15,2014-01-24 09:32:00,
2014-01-24 04:33:00,-2.7,-7.9,30.27,SW,217,1.0,2.0,78,0.00,,,0.00,Wunderground v.1.15,2014-01-24 09:33:00,
2014-01-24 04:34:00,-2.7,-7.9,30.27,South,183,1.0,2.0,78,0.00,,,0.00,Wunderground v.1.15,2014-01-24 09:34:00,
2014-01-24 04:35:00,-2.7,-7.9,30.27,South,183,0.0,5.0,78,0.00,,,0.00,Wunderground v.1.15,2014-01-24 09:35:00,
2014-01-24 04:37:00,-2.7,-7.9,30.27,ENE,71,1.0,5.0,78,0.00,,,0.00,Wunderground v.1.15,2014-01-24 09:37:00,
2014-01-24 04:39:00,-2.7,-7.9,30.28,SSE,163,0.0,5.0,78,0.00,,,0.00,Wunderground v.1.15,2014-01-24 09:39:00,
2014-01-24 04:41:00,-2.7,-7.9,30.28,ESE,115,0.0,1.0,78,0.00,,,0.00,Wunderground v.1.15,2014-01-24 09:41:00,
2014-01-24 04:42:00,-2.7,-7.9,30.28,SSE,164,1.0,2.0,78,0.00,,,0.00,Wunderground v.1.15,2014-01-24 09:42:00,
2014-01-24 04:44:00,-2.7,-7.9,30.28,East,94,4.0,4.0,78,0.00,,,0.00,Wunderground v.1.15,2014-01-24 09:44:00,
2014-01-24 04:46:00,-2.8,-8.0,30.28,SSE,163,1.0,4.0,78,0.00,,,0.00,Wunderground v.1.15,2014-01-24 09:46:00,
2014-01-24 04:47:00,-2.8,-8.0,30.28,SSE,159,1.0,4.0,78,0.00,,,0.00,Wunderground v.1.15,2014-01-24 09:47:00,
2014-01-24 04:49:00,-2.9,-8.1,30.28,SE,141,1.0,4.0,78,0.00,,,0.00,Wunderground v.1.15,2014-01-24 09:49:00,
2014-01-24 04:50:00,-2.9,-8.1,30.28,SSE,167,1.0,1.0,78,0.00,,,0.00,Wunderground v.1.15,2014-01-24 09:50:00,
2014-01-24 04:51:00,-2.9,-8.1,30.28,SSE,162,1.0,1.0,78,0.00,,,0.00,Wunderground v.1.15,2014-01-24 09:51:00,
2014-01-24 04:52:00,-2.9,-8.1,30.28,SSE,168,1.0,4.0,78,0.00,,,0.00,Wunderground v.1.15,2014-01-24 09:52:00,
2014-01-24 04:53:00,-2.9,-8.1,30.28,SSE,156,0.0,4.0,78,0.00,,,0.00,Wunderground v.1.15,2014-01-24 09:53:00,
2014-01-24 04:54:00,-2.9,-8.1,30.28,ENE,64,2.0,4.0,78,0.00,,,0.00,Wunderground v.1.15,2014-01-24 09:54:00,
2014-01-24 04:55:00,-2.9,-8.1,30.28,SSE,168,1.0,4.0,78,0.00,,,0.00,Wunderground v.1.15,2014-01-24 09:55:00,
2014-01-24 04:56:00,-2.9,-8.3,30.28,SSE,168,1.0,5.0,77,0.00,,,0.00,Wunderground v.1.15,2014-01-24 09:56:00,
2014-01-24 04:58:00,-2.9,-8.3,30.28,SSE,168,0.0,5.0,77,0.00,,,0.00,Wunderground v.1.15,2014-01-24 09:58:00,
2014-01-24 04:59:00,-2.9,-8.3,30.28,SE,131,1.0,5.0,77,0.00,,,0.00,Wunderground v.1.15,2014-01-24 09:59:00,
2014-01-24 05:00:00,-2.9,-8.3,30.28,SSE,167,0.0,1.0,77,0.00,,,0.00,Wunderground v.1.15,2014-01-24 10:00:00,
2014-01-24 05:01:00,-2.9,-8.3,30.28,SSE,160,0.0,1.0,77,0.00,,,0.00,Wunderground v.1.15,2014-01-24 10:01:00,
2014-01-24 05:03:00,-3.0,-8.4,30.28,SSE,167,0.0,1.0,77,0.00,,,0.00,Wunderground v.1.15,2014-01-24 10:03:00,
2014-01-24 05:04:00,-3.0,-8.4,30.28,East,95,1.0,2.0,77,0.00,,,0.00,Wunderground v.1.15,2014-01-24 10:04:00,
2014-01-24 05:05:00,-3.0,-8.4,30.28,SSE,158,2.0,3.0,77,0.00,,,0.00,Wunderground v.1.15,2014-01-24 10:05:00,
2014-01-24 05:07:00,-3.1,-8.5,30.28,SSE,167,1.0,3.0,77,0.00,,,0.00,Wunderground v.1.15,2014-01-24 10:07:00,
2014-01-24 05:08:00,-3.1,-8.5,30.28,SSE,167,0.0,3.0,77,0.00,,,0.00,Wunderground v.1.15,2014-01-24 10:08:00,
2014-01-24 05:09:00,-3.1,-8.5,30.28,SSE,167,0.0,3.0,77,0.00,,,0.00,Wunderground v.1.15,2014-01-24 10:09:00,
2014-01-24 05:10:00,-3.1,-8.5,30.28,SSE,167,0.0,1.0,77,0.00,,,0.00,Wunderground v.1.15,2014-01-24 10:10:00,
2014-01-24 05:13:00,-3.2,-8.6,30.28,SSE,167,1.0,3.0,77,0.00,,,0.00,Wunderground v.1.15,2014-01-24 10:13:00,
2014-01-24 05:14:00,-3.2,-8.6,30.28,ESE,110,1.0,3.0,77,0.00,,,0.00,Wunderground v.1.15,2014-01-24 10:14:00,
2014-01-24 05:15:00,-3.2,-8.6,30.28,ESE,102,1.0,3.0,77,0.00,,,0.00,Wunderground v.1.15,2014-01-24 10:15:00,
2014-01-24 05:18:00,-3.3,-8.7,30.28,SSE,167,1.0,3.0,77,0.00,,,0.00,Wunderground v.1.15,2014-01-24 10:18:00,
2014-01-24 05:19:00,-3.3,-8.7,30.28,East,98,2.0,3.0,77,0.00,,,0.00,Wunderground v.1.15,2014-01-24 10:19:00,
2014-01-24 05:20:00,-3.3,-8.4,30.28,SSE,167,0.0,1.0,78,0.00,,,0.00,Wunderground v.1.15,2014-01-24 10:20:00,
2014-01-24 05:23:00,-3.4,-8.8,30.28,SSE,168,0.0,2.0,77,0.00,,,0.00,Wunderground v.1.15,2014-01-24 10:23:00,
2014-01-24 05:24:00,-3.4,-8.8,30.28,SSE,167,0.0,2.0,77,0.00,,,0.00,Wunderground v.1.15,2014-01-24 10:24:00,
2014-01-24 05:25:00,-3.4,-8.8,30.28,East,90,0.0,2.0,77,0.00,,,0.00,Wunderground v.1.15,2014-01-24 10:25:00,
2014-01-24 05:26:00,-3.4,-8.8,30.28,SSE,168,1.0,2.0,77,0.00,,,0.00,Wunderground v.1.15,2014-01-24 10:26:00,
2014-01-24 05:28:00,-3.4,-8.5,30.29,SSE,167,1.0,3.0,78,0.00,,,0.00,Wunderground v.1.15,2014-01-24 10:28:00,
2014-01-24 05:29:00,-3.5,-8.9,30.29,SSE,167,0.0,3.0,77,0.00,,,0.00,Wunderground v.1.15,2014-01-24 10:29:00,
2014-01-24 05:30:00,-3.5,-8.9,30.29,SSE,167,0.0,1.0,77,0.00,,,0.00,Wunderground v.1.15,2014-01-24 10:30:00,
2014-01-24 05:31:00,-3.5,-8.9,30.29,SSE,168,0.0,1.0,77,0.00,,,0.00,Wunderground v.1.15,2014-01-24 10:31:00,
2014-01-24 05:34:00,-3.6,-8.7,30.29,SSE,167,0.0,1.0,78,0.00,,,0.00,Wunderground v.1.15,2014-01-24 10:34:00,
2014-01-24 05:35:00,-3.6,-8.7,30.29,SSE,148,1.0,1.0,78,0.00,,,0.00,Wunderground v.1.15,2014-01-24 10:35:00,
2014-01-24 05:36:00,-3.7,-8.8,30.29,SSE,168,0.0,1.0,78,0.00,,,0.00,Wunderground v.1.15,2014-01-24 10:36:00,
2014-01-24 05:37:00,-3.7,-8.8,30.29,SSE,168,0.0,1.0,78,0.00,,,0.00,Wunderground v.1.15,2014-01-24 10:37:00,
2014-01-24 05:39:00,-3.8,-8.9,30.29,SSE,167,0.0,1.0,78,0.00,,,0.00,Wunderground v.1.15,2014-01-24 10:39:00,
2014-01-24 05:40:00,-3.8,-8.9,30.29,SE,139,0.0,1.0,78,0.00,,,0.00,Wunderground v.1.15,2014-01-24 10:40:00,
2014-01-24 05:41:00,-3.8,-8.9,30.29,SE,140,0.0,1.0,78,0.00,,,0.00,Wunderground v.1.15,2014-01-24 10:41:00,
2014-01-24 05:42:00,-3.8,-8.9,30.29,SSE,167,1.0,1.0,78,0.00,,,0.00,Wunderground v.1.15,2014-01-24 10:42:00,
2014-01-24 05:44:00,-3.8,-8.9,30.30,SSE,160,0.0,1.0,78,0.00,,,0.00,Wunderground v.1.15,2014-01-24 10:44:00,
2014-01-24 05:45:00,-3.9,-9.0,30.29,ENE,72,1.0,1.0,78,0.00,,,0.00,Wunderground v.1.15,2014-01-24 10:45:00,
2014-01-24 05:46:00,-3.9,-9.0,30.29,East,87,2.0,2.0,78,0.00,,,0.00,Wunderground v.1.15,2014-01-24 10:46:00,
2014-01-24 05:47:00,-3.9,-9.0,30.29,SE,133,0.0,2.0,78,0.00,,,0.00,Wunderground v.1.15,2014-01-24 10:47:00,
2014-01-24 05:49:00,-3.9,-8.8,30.29,SSE,167,0.0,3.0,79,0.00,,,0.00,Wunderground v.1.15,2014-01-24 10:49:00,
2014-01-24 05:50:00,-3.9,-8.8,30.29,East,98,1.0,2.0,79,0.00,,,0.00,Wunderground v.1.15,2014-01-24 10:50:00,
2014-01-24 05:51:00,-3.9,-8.8,30.29,East,94,2.0,2.0,79,0.00,,,0.00,Wunderground v.1.15,2014-01-24 10:51:00,
2014-01-24 05:52:00,-3.9,-8.8,30.29,East,86,2.0,4.0,79,0.00,,,0.00,Wunderground v.1.15,2014-01-24 10:52:00,
2014-01-24 05:54:00,-3.9,-8.8,30.29,ENE,75,2.0,4.0,79,0.00,,,0.00,Wunderground v.1.15,2014-01-24 10:54:00,
2014-01-24 05:55:00,-4.0,-8.9,30.29,SSE,167,1.0,5.0,79,0.00,,,0.00,Wunderground v.1.15,2014-01-24 10:55:00,
2014-01-24 05:56:00,-4.0,-8.9,30.29,SSE,148,1.0,5.0,79,0.00,,,0.00,Wunderground v.1.15,2014-01-24 10:56:00,
2014-01-24 05:57:00,-4.0,-8.9,30.29,SSE,168,1.0,5.0,79,0.00,,,0.00,Wunderground v.1.15,2014-01-24 10:57:00,
2014-01-24 05:58:00,-4.0,-8.9,30.30,SSE,165,0.0,5.0,79,0.00,,,0.00,Wunderground v.1.15,2014-01-24 10:58:00,
2014-01-24 05:59:00,-4.0,-8.9,30.29,East,99,0.0,5.0,79,0.00,,,0.00,Wunderground v.1.15,2014-01-24 10:59:00,
2014-01-24 06:01:00,-4.0,-9.1,30.30,SE,124,1.0,1.0,78,0.00,,,0.00,Wunderground v.1.15,2014-01-24 11:01:00,
2014-01-24 06:02:00,-4.0,-8.9,30.30,SE,130,0.0,1.0,79,0.00,,,0.00,Wunderground v.1.15,2014-01-24 11:02:00,
2014-01-24 06:03:00,-4.0,-8.9,30.29,ESE,106,1.0,2.0,79,0.00,,,0.00,Wunderground v.1.15,2014-01-24 11:03:00,
2014-01-24 06:05:00,-4.0,-8.9,30.30,SSE,165,1.0,4.0,79,0.00,,,0.00,Wunderground v.1.15,2014-01-24 11:05:00,
2014-01-24 06:06:00,-4.0,-8.9,30.30,SSE,167,0.0,4.0,79,0.00,,,0.00,Wunderground v.1.15,2014-01-24 11:06:00,
2014-01-24 06:07:00,-4.1,-9.0,30.30,SSE,167,0.0,4.0,79,0.00,,,0.00,Wunderground v.1.15,2014-01-24 11:07:00,
2014-01-24 06:08:00,-4.1,-9.2,30.30,SSE,167,2.0,4.0,78,0.00,,,0.00,Wunderground v.1.15,2014-01-24 11:08:00,
2014-01-24 06:10:00,-4.1,-9.2,30.30,ENE,63,0.0,1.0,78,0.00,,,0.00,Wunderground v.1.15,2014-01-24 11:10:00,
2014-01-24 06:12:00,-4.1,-9.2,30.30,ESE,103,0.0,1.0,78,0.00,,,0.00,Wunderground v.1.15,2014-01-24 11:12:00,
2014-01-24 06:13:00,-4.2,-9.3,30.30,ESE,122,1.0,2.0,78,0.00,,,0.00,Wunderground v.1.15,2014-01-24 11:13:00,
2014-01-24 06:15:00,-4.2,-9.3,30.30,SSE,158,0.0,2.0,78,0.00,,,0.00,Wunderground v.1.15,2014-01-24 11:15:00,
2014-01-24 06:17:00,-4.3,-9.4,30.30,ESE,117,1.0,4.0,78,0.00,,,0.00,Wunderground v.1.15,2014-01-24 11:17:00,
2014-01-24 06:19:00,-4.3,-9.4,30.30,SE,124,2.0,4.0,78,0.00,,,0.00,Wunderground v.1.15,2014-01-24 11:19:00,
2014-01-24 06:20:00,-4.3,-9.4,30.30,East,96,2.0,3.0,78,0.00,,,0.00,Wunderground v.1.15,2014-01-24 11:20:00,
2014-01-24 06:22:00,-4.3,-9.4,30.30,SSE,155,1.0,3.0,78,0.00,,,0.00,Wunderground v.1.15,2014-01-24 11:22:00,
2014-01-24 06:24:00,-4.3,-9.4,30.30,SSE,167,1.0,3.0,78,0.00,,,0.00,Wunderground v.1.15,2014-01-24 11:24:00,
2014-01-24 06:25:00,-4.3,-9.4,30.30,SSE,167,1.0,3.0,78,0.00,,,0.00,Wunderground v.1.15,2014-01-24 11:25:00,
2014-01-24 06:27:00,-4.3,-9.4,30.31,SSE,167,0.0,3.0,78,0.00,,,0.00,Wunderground v.1.15,2014-01-24 11:27:00,
2014-01-24 06:28:00,-4.3,-9.4,30.31,SSE,167,4.0,4.0,78,0.00,,,0.00,Wunderground v.1.15,2014-01-24 11:28:00,
2014-01-24 06:29:00,-4.3,-9.4,30.31,SSE,167,0.0,4.0,78,0.00,,,0.00,Wunderground v.1.15,2014-01-24 11:29:00,
2014-01-24 06:30:00,-4.3,-9.4,30.31,SSE,156,0.0,4.0,78,0.00,,,0.00,Wunderground v.1.15,2014-01-24 11:30:00,
2014-01-24 06:32:00,-4.2,-9.3,30.31,SSE,168,1.0,4.0,78,0.00,,,0.00,Wunderground v.1.15,2014-01-24 11:32:00,
2014-01-24 06:33:00,-4.2,-9.3,30.31,SSE,167,0.0,4.0,78,0.00,,,0.00,Wunderground v.1.15,2014-01-24 11:33:00,
2014-01-24 06:34:00,-4.2,-9.3,30.31,SSE,167,0.0,4.0,78,0.00,,,0.00,Wunderground v.1.15,2014-01-24 11:34:00,
2014-01-24 06:35:00,-4.2,-9.3,30.31,SSE,167,1.0,4.0,78,0.00,,,0.00,Wunderground v.1.15,2014-01-24 11:35:00,
2014-01-24 06:37:00,-4.3,-9.4,30.31,SSE,150,0.0,4.0,78,0.00,,,0.00,Wunderground v.1.15,2014-01-24 11:37:00,
2014-01-24 06:38:00,-4.3,-9.4,30.31,SSE,167,2.0,4.0,78,0.00,,,0.00,Wunderground v.1.15,2014-01-24 11:38:00,
2014-01-24 06:39:00,-4.3,-9.4,30.31,ENE,63,1.0,4.0,78,0.00,,,0.00,Wunderground v.1.15,2014-01-24 11:39:00,
2014-01-24 06:40:00,-4.3,-9.4,30.31,ENE,57,0.0,1.0,78,0.00,,,0.00,Wunderground v.1.15,2014-01-24 11:40:00,
2014-01-24 06:42:00,-4.3,-9.4,30.31,SSE,167,2.0,2.0,78,0.00,,,0.00,Wunderground v.1.15,2014-01-24 11:42:00,
2014-01-24 06:43:00,-4.3,-9.4,30.31,SSE,167,2.0,2.0,78,0.00,,,0.00,Wunderground v.1.15,2014-01-24 11:43:00,
2014-01-24 06:45:00,-4.3,-9.4,30.31,SSE,167,0.0,4.0,78,0.00,,,0.00,Wunderground v.1.15,2014-01-24 11:45:00,
2014-01-24 06:46:00,-4.3,-9.4,30.31,SSE,158,1.0,4.0,78,0.00,,,0.00,Wunderground v.1.15,2014-01-24 11:46:00,
2014-01-24 06:47:00,-4.2,-9.3,30.32,SSE,148,1.0,4.0,78,0.00,,,0.00,Wunderground v.1.15,2014-01-24 11:47:00,
2014-01-24 06:48:00,-4.2,-9.3,30.32,SSE,167,0.0,4.0,78,0.00,,,0.00,Wunderground v.1.15,2014-01-24 11:48:00,
2014-01-24 06:50:00,-4.2,-9.3,30.32,SSE,167,1.0,1.0,78,0.00,,,0.00,Wunderground v.1.15,2014-01-24 11:50:00,
2014-01-24 06:51:00,-4.3,-9.4,30.32,SSE,160,0.0,2.0,78,0.00,,,0.00,Wunderground v.1.15,2014-01-24 11:51:00,
2014-01-24 06:52:00,-4.3,-9.4,30.32,SSE,148,0.0,2.0,78,0.00,,,0.00,Wunderground v.1.15,2014-01-24 11:52:00,
2014-01-24 06:53:00,-4.2,-9.3,30.32,SSE,168,1.0,2.0,78,0.00,,,0.00,Wunderground v.1.15,2014-01-24 11:53:00,
2014-01-24 06:54:00,-4.3,-9.4,30.32,SSE,167,1.0,3.0,78,0.00,,,0.00,Wunderground v.1.15,2014-01-24 11:54:00,
2014-01-24 06:55:00,-4.3,-9.4,30.32,SSE,167,0.0,3.0,78,0.00,,,0.00,Wunderground v.1.15,2014-01-24 11:55:00,
2014-01-24 06:57:00,-4.3,-9.4,30.32,SSE,165,0.0,3.0,78,0.00,,,0.00,Wunderground v.1.15,2014-01-24 11:57:00,
2014-01-24 06:58:00,-4.2,-9.3,30.32,ESE,104,2.0,3.0,78,0.00,,,0.00,Wunderground v.1.15,2014-01-24 11:58:00,
2014-01-24 06:59:00,-4.3,-9.4,30.32,East,92,1.0,3.0,78,0.00,,,0.00,Wunderground v.1.15,2014-01-24 11:59:00,
2014-01-24 07:01:00,-4.3,-9.4,30.32,SE,139,0.0,3.0,78,0.00,,,0.00,Wunderground v.1.15,2014-01-24 12:01:00,
2014-01-24 07:02:00,-4.3,-9.4,30.32,SSE,153,1.0,3.0,78,0.00,,,0.00,Wunderground v.1.15,2014-01-24 12:02:00,
2014-01-24 07:03:00,-4.3,-9.4,30.32,ESE,121,0.0,3.0,78,0.00,,,0.00,Wunderground v.1.15,2014-01-24 12:03:00,
2014-01-24 07:04:00,-4.3,-9.4,30.32,SSE,167,0.0,3.0,78,0.00,,,0.00,Wunderground v.1.15,2014-01-24 12:04:00,
2014-01-24 07:05:00,-4.3,-9.4,30.32,SSE,167,0.0,3.0,78,0.00,,,0.00,Wunderground v.1.15,2014-01-24 12:05:00,
2014-01-24 07:06:00,-4.3,-9.4,30.32,ESE,122,1.0,3.0,78,0.00,,,0.00,Wunderground v.1.15,2014-01-24 12:06:00,
2014-01-24 07:07:00,-4.3,-9.4,30.32,ENE,73,2.0,3.0,78,0.00,,,0.00,Wunderground v.1.15,2014-01-24 12:07:00,
2014-01-24 07:08:00,-4.3,-9.4,30.32,SSE,167,1.0,3.0,78,0.00,,,0.00,Wunderground v.1.15,2014-01-24 12:08:00,
2014-01-24 07:10:00,-4.3,-9.4,30.32,SSE,167,2.0,2.0,78,0.00,,,0.00,Wunderground v.1.15,2014-01-24 12:10:00,
2014-01-24 07:11:00,-4.3,-9.4,30.32,SSE,155,1.0,2.0,78,0.00,,,0.00,Wunderground v.1.15,2014-01-24 12:11:00,
2014-01-24 07:12:00,-4.3,-9.4,30.32,SSE,155,0.0,2.0,78,0.00,,,0.00,Wunderground v.1.15,2014-01-24 12:12:00,
2014-01-24 07:13:00,-4.3,-9.4,30.32,ESE,102,2.0,2.0,78,0.00,,,0.00,Wunderground v.1.15,2014-01-24 12:13:00,
2014-01-24 07:14:00,-4.3,-9.7,30.32,SSE,167,1.0,2.0,77,0.00,,,0.00,Wunderground v.1.15,2014-01-24 12:14:00,
2014-01-24 07:15:00,-4.3,-9.7,30.32,SSE,168,1.0,2.0,77,0.00,,,0.00,Wunderground v.1.15,2014-01-24 12:15:00,
2014-01-24 07:17:00,-4.4,-9.8,30.32,SSE,161,1.0,2.0,77,0.00,,,0.00,Wunderground v.1.15,2014-01-24 12:17:00,
2014-01-24 07:18:00,-4.4,-9.5,30.32,SSE,167,1.0,2.0,78,0.00,,,0.00,Wunderground v.1.15,2014-01-24 12:18:00,
2014-01-24 07:19:00,-4.4,-9.5,30.32,ESE,108,2.0,2.0,78,0.00,,,0.00,Wunderground v.1.15,2014-01-24 12:19:00,
2014-01-24 07:20:00,-4.4,-9.5,30.32,SSE,148,2.0,3.0,78,0.00,,,0.00,Wunderground v.1.15,2014-01-24 12:20:00,
2014-01-24 07:22:00,-4.3,-9.7,30.32,SSE,167,1.0,4.0,77,0.00,,,0.00,Wunderground v.1.15,2014-01-24 12:22:00,
2014-01-24 07:23:00,-4.3,-9.7,30.32,SE,130,1.0,4.0,77,0.00,,,0.00,Wunderground v.1.15,2014-01-24 12:23:00,
2014-01-24 07:24:00,-4.3,-9.7,30.33,SE,128,1.0,4.0,77,0.00,,,0.00,Wunderground v.1.15,2014-01-24 12:24:00,
2014-01-24 07:25:00,-4.3,-9.7,30.32,SSE,167,1.0,4.0,77,0.00,,,0.00,Wunderground v.1.15,2014-01-24 12:25:00,
2014-01-24 07:27:00,-4.3,-9.7,30.32,SSE,161,0.0,4.0,77,0.00,,,0.00,Wunderground v.1.15,2014-01-24 12:27:00,
2014-01-24 07:28:00,-4.3,-9.7,30.33,East,96,3.0,4.0,77,0.00,,,0.00,Wunderground v.1.15,2014-01-24 12:28:00,
2014-01-24 07:29:00,-4.3,-9.7,30.33,ESE,113,1.0,4.0,77,0.00,,,0.00,Wunderground v.1.15,2014-01-24 12:29:00,
2014-01-24 07:30:00,-4.3,-9.7,30.33,SSE,168,0.0,2.0,77,0.00,,,0.00,Wunderground v.1.15,2014-01-24 12:30:00,
2014-01-24 07:32:00,-4.2,-9.6,30.32,ESE,117,1.0,4.0,77,0.00,,,0.00,Wunderground v.1.15,2014-01-24 12:32:00,
2014-01-24 07:33:00,-4.1,-9.5,30.33,SSE,167,1.0,4.0,77,0.00,,,0.00,Wunderground v.1.15,2014-01-24 12:33:00,
2014-01-24 07:34:00,-4.1,-9.5,30.33,SSE,168,1.0,4.0,77,0.00,,,0.00,Wunderground v.1.15,2014-01-24 12:34:00,
2014-01-24 07:35:00,-4.2,-9.6,30.33,East,101,1.0,4.0,77,0.00,,,0.00,Wunderground v.1.15,2014-01-24 12:35:00,
2014-01-24 07:36:00,-4.1,-9.5,30.33,SE,138,1.0,4.0,77,0.00,,,0.00,Wunderground v.1.15,2014-01-24 12:36:00,
2014-01-24 07:37:00,-4.1,-9.5,30.33,East,91,0.0,4.0,77,0.00,,,0.00,Wunderground v.1.15,2014-01-24 12:37:00,
2014-01-24 07:39:00,-4.1,-9.5,30.33,ESE,104,2.0,4.0,77,0.00,,,0.00,Wunderground v.1.15,2014-01-24 12:39:00,
2014-01-24 07:40:00,-4.0,-9.4,30.33,SSE,167,2.0,2.0,77,0.00,,,0.00,Wunderground v.1.15,2014-01-24 12:40:00,
2014-01-24 07:41:00,-4.0,-9.4,30.33,SSE,167,2.0,2.0,77,0.00,,,0.00,Wunderground v.1.15,2014-01-24 12:41:00,
2014-01-24 07:42:00,-3.9,-9.3,30.33,SSE,167,0.0,2.0,77,0.00,,,0.00,Wunderground v.1.15,2014-01-24 12:42:00,
2014-01-24 07:44:00,-3.8,-9.2,30.33,SE,133,0.0,2.0,77,0.00,,,0.00,Wunderground v.1.15,2014-01-24 12:44:00,
2014-01-24 07:45:00,-3.8,-9.2,30.33,SE,132,0.0,2.0,77,0.00,,,0.00,Wunderground v.1.15,2014-01-24 12:45:00,
2014-01-24 07:46:00,-3.8,-9.5,30.33,SSE,168,1.0,2.0,76,0.00,,,0.00,Wunderground v.1.15,2014-01-24 12:46:00,
2014-01-24 07:47:00,-3.7,-9.4,30.33,SSE,156,1.0,2.0,76,0.00,,,0.00,Wunderground v.1.15,2014-01-24 12:47:00,
2014-01-24 07:49:00,-3.7,-9.4,30.33,SSE,167,0.0,2.0,76,0.00,,,0.00,Wunderground v.1.15,2014-01-24 12:49:00,
2014-01-24 07:50:00,-3.6,-9.3,30.33,SSE,167,0.0,1.0,76,0.00,,,0.00,Wunderground v.1.15,2014-01-24 12:50:00,
2014-01-24 07:51:00,-3.6,-9.3,30.33,SSE,167,0.0,2.0,76,0.00,,,0.00,Wunderground v.1.15,2014-01-24 12:51:00,
2014-01-24 07:52:00,-3.5,-9.2,30.33,SSE,167,1.0,2.0,76,0.00,,,0.00,Wunderground v.1.15,2014-01-24 12:52:00,
2014-01-24 07:54:00,-3.4,-9.1,30.33,NE,34,1.0,4.0,76,0.00,,,0.00,Wunderground v.1.15,2014-01-24 12:54:00,
2014-01-24 07:55:00,-3.4,-9.1,30.33,ESE,103,1.0,4.0,76,0.00,,,0.00,Wunderground v.1.15,2014-01-24 12:55:00,
2014-01-24 07:56:00,-3.3,-9.0,30.33,SE,127,0.0,4.0,76,0.00,,,0.00,Wunderground v.1.15,2014-01-24 12:56:00,
2014-01-24 07:57:00,-3.3,-9.0,30.33,ESE,122,1.0,4.0,76,0.00,,,0.00,Wunderground v.1.15,2014-01-24 12:57:00,
2014-01-24 07:58:00,-3.3,-9.0,30.33,ESE,121,1.0,4.0,76,0.00,,,0.00,Wunderground v.1.15,2014-01-24 12:58:00,
2014-01-24 07:59:00,-3.2,-8.9,30.33,ESE,106,1.0,4.0,76,0.00,,,0.00,Wunderground v.1.15,2014-01-24 12:59:00,
2014-01-24 08:01:00,-3.2,-9.2,30.33,SSE,167,2.0,2.0,75,0.00,,,0.00,Wunderground v.1.15,2014-01-24 13:01:00,
2014-01-24 08:02:00,-3.0,-9.0,30.33,SSE,167,0.0,2.0,75,0.00,,,0.00,Wunderground v.1.15,2014-01-24 13:02:00,
2014-01-24 08:03:00,-3.0,-9.0,30.33,SSE,167,3.0,3.0,75,0.00,,,0.00,Wunderground v.1.15,2014-01-24 13:03:00,
2014-01-24 08:04:00,-2.9,-8.9,30.33,SSE,167,1.0,3.0,75,0.00,,,0.00,Wunderground v.1.15,2014-01-24 13:04:00,
2014-01-24 08:06:00,-2.9,-8.9,30.33,SSE,167,2.0,3.0,75,0.00,,,0.00,Wunderground v.1.15,2014-01-24 13:06:00,
2014-01-24 08:07:00,-2.7,-8.9,30.33,SSE,167,3.0,5.0,74,0.00,,,0.00,Wunderground v.1.15,2014-01-24 13:07:00,
2014-01-24 08:08:00,-2.7,-8.9,30.33,SSE,167,3.0,5.0,74,0.00,,,0.00,Wunderground v.1.15,2014-01-24 13:08:00,
2014-01-24 08:10:00,-2.7,-8.9,30.33,SSE,167,2.0,5.0,74,0.00,,,0.00,Wunderground v.1.15,2014-01-24 13:10:00,
2014-01-24 08:11:00,-2.6,-8.8,30.33,SSE,167,2.0,3.0,74,0.00,,,0.00,Wunderground v.1.15,2014-01-24 13:11:00,
2014-01-24 08:13:00,-2.6,-9.1,30.33,SSE,167,1.0,3.0,73,0.00,,,0.00,Wunderground v.1.15,2014-01-24 13:13:00,
2014-01-24 08:15:00,-2.5,-9.0,30.33,SSE,167,2.0,3.0,73,0.00,,,0.00,Wunderground v.1.15,2014-01-24 13:15:00,
2014-01-24 08:16:00,-2.4,-8.9,30.33,SSE,167,0.0,3.0,73,0.00,,,0.00,Wunderground v.1.15,2014-01-24 13:16:00,
2014-01-24 08:18:00,-2.3,-8.6,30.33,SSE,167,2.0,3.0,74,0.00,,,0.00,Wunderground v.1.15,2014-01-24 13:18:00,
2014-01-24 08:19:00,-2.2,-8.5,30.33,SSE,168,2.0,3.0,74,0.00,,,0.00,Wunderground v.1.15,2014-01-24 13:19:00,
2014-01-24 08:20:00,-2.1,-8.6,30.33,SSE,161,0.0,3.0,73,0.00,,,0.00,Wunderground v.1.15,2014-01-24 13:20:00,
2014-01-24 08:21:00,-2.0,-8.3,30.33,SSE,168,2.0,2.0,74,0.00,,,0.00,Wunderground v.1.15,2014-01-24 13:21:00,
2014-01-24 08:22:00,-2.0,-8.3,30.33,SSE,167,4.0,4.0,74,0.00,,,0.00,Wunderground v.1.15,2014-01-24 13:22:00,
2014-01-24 08:23:00,-1.9,-8.2,30.33,SSE,168,2.0,4.0,74,0.00,,,0.00,Wunderground v.1.15,2014-01-24 13:23:00,
2014-01-24 08:24:00,-1.9,-8.4,30.33,SSE,168,1.0,4.0,73,0.00,,,0.00,Wunderground v.1.15,2014-01-24 13:24:00,
2014-01-24 08:25:00,-1.8,-8.3,30.33,SSE,167,2.0,4.0,73,0.00,,,0.00,Wunderground v.1.15,2014-01-24 13:25:00,
2014-01-24 08:27:00,-1.8,-8.3,30.33,SSE,167,2.0,5.0,73,0.00,,,0.00,Wunderground v.1.15,2014-01-24 13:27:00,
2014-01-24 08:28:00,-1.7,-8.5,30.34,SSE,167,0.0,5.0,72,0.00,,,0.00,Wunderground v.1.15,2014-01-24 13:28:00,
2014-01-24 08:29:00,-1.7,-8.5,30.34,SSE,166,0.0,5.0,72,0.00,,,0.00,Wunderground v.1.15,2014-01-24 13:29:00,
2014-01-24 08:31:00,-1.5,-8.3,30.33,South,183,2.0,2.0,72,0.00,,,0.00,Wunderground v.1.15,2014-01-24 13:31:00,
2014-01-24 08:32:00,-1.5,-8.1,30.33,SW,222,3.0,3.0,73,0.00,,,0.00,Wunderground v.1.15,2014-01-24 13:32:00,
2014-01-24 08:33:00,-1.4,-8.2,30.33,SW,217,1.0,5.0,72,0.00,,,0.00,Wunderground v.1.15,2014-01-24 13:33:00,
2014-01-24 08:34:00,-1.4,-8.2,30.34,SW,216,2.0,5.0,72,0.00,,,0.00,Wunderground v.1.15,2014-01-24 13:34:00,
2014-01-24 08:35:00,-1.4,-8.2,30.34,SW,229,3.0,5.0,72,0.00,,,0.00,Wunderground v.1.15,2014-01-24 13:35:00,
2014-01-24 08:36:00,-1.3,-8.1,30.34,South,183,2.0,5.0,72,0.00,,,0.00,Wunderground v.1.15,2014-01-24 13:36:00,
2014-01-24 08:37:00,-1.2,-8.3,30.34,South,183,0.0,5.0,71,0.00,,,0.00,Wunderground v.1.15,2014-01-24 13:37:00,
2014-01-24 08:38:00,-1.2,-8.3,30.34,South,183,1.0,5.0,71,0.00,,,0.00,Wunderground v.1.15,2014-01-24 13:38:00,
2014-01-24 08:40:00,-1.1,-8.2,30.34,ENE,57,2.0,5.0,71,0.00,,,0.00,Wunderground v.1.15,2014-01-24 13:40:00,
2014-01-24 08:41:00,-1.0,-7.9,30.34,SW,217,2.0,3.0,72,0.00,,,0.00,Wunderground v.1.15,2014-01-24 13:41:00,
2014-01-24 08:42:00,-0.9,-8.0,30.34,WNW,289,3.0,4.0,71,0.00,,,0.00,Wunderground v.1.15,2014-01-24 13:42:00,
2014-01-24 08:43:00,-0.8,-8.0,30.34,South,183,2.0,4.0,71,0.00,,,0.00,Wunderground v.1.15,2014-01-24 13:43:00,
2014-01-24 08:45:00,-0.8,-7.7,30.34,SSW,201,0.0,4.0,72,0.00,,,0.00,Wunderground v.1.15,2014-01-24 13:45:00,
2014-01-24 08:46:00,-0.7,-7.9,30.34,SW,236,3.0,4.0,71,0.00,,,0.00,Wunderground v.1.15,2014-01-24 13:46:00,
2014-01-24 08:47:00,-0.6,-7.8,30.34,South,183,2.0,4.0,71,0.00,,,0.00,Wunderground v.1.15,2014-01-24 13:47:00,
2014-01-24 08:48:00,-0.6,-7.8,30.34,SSW,201,0.0,4.0,71,0.00,,,0.00,Wunderground v.1.15,2014-01-24 13:48:00,
2014-01-24 08:50:00,-0.5,-7.7,30.34,WNW,283,2.0,4.0,71,0.00,,,0.00,Wunderground v.1.15,2014-01-24 13:50:00,
2014-01-24 08:51:00,-0.5,-7.7,30.34,SSW,198,0.0,1.0,71,0.00,,,0.00,Wunderground v.1.15,2014-01-24 13:51:00,
2014-01-24 08:52:00,-0.3,-7.8,30.34,South,184,1.0,6.0,70,0.00,,,0.00,Wunderground v.1.15,2014-01-24 13:52:00,
2014-01-24 08:53:00,-0.3,-7.8,30.34,WSW,249,1.0,6.0,70,0.00,,,0.00,Wunderground v.1.15,2014-01-24 13:53:00,
2014-01-24 08:54:00,-0.3,-7.8,30.34,WSW,244,1.0,6.0,70,0.00,,,0.00,Wunderground v.1.15,2014-01-24 13:54:00,
2014-01-24 08:56:00,-0.2,-7.7,30.34,South,183,1.0,6.0,70,0.00,,,0.00,Wunderground v.1.15,2014-01-24 13:56:00,
2014-01-24 08:57:00,-0.1,-7.6,30.34,South,183,2.0,6.0,70,0.00,,,0.00,Wunderground v.1.15,2014-01-24 13:57:00,
2014-01-24 08:59:00,-0.1,-7.6,30.34,SW,228,0.0,6.0,70,0.00,,,0.00,Wunderground v.1.15,2014-01-24 13:59:00,
2014-01-24 09:01:00,0.1,-7.4,30.34,South,183,0.0,2.0,70,0.00,,,0.00,Wunderground v.1.15,2014-01-24 14:01:00,
2014-01-24 09:02:00,0.1,-7.7,30.34,SW,233,4.0,4.0,69,0.00,,,0.00,Wunderground v.1.15,2014-01-24 14:02:00,
2014-01-24 09:04:00,0.3,-7.2,30.34,SSW,207,0.0,4.0,70,0.00,,,0.00,Wunderground v.1.15,2014-01-24 14:04:00,
2014-01-24 09:07:00,0.4,-7.4,30.34,WSW,252,2.0,4.0,69,0.00,,,0.00,Wunderground v.1.15,2014-01-24 14:07:00,
2014-01-24 09:08:00,0.5,-7.3,30.34,South,183,1.0,4.0,69,0.00,,,0.00,Wunderground v.1.15,2014-01-24 14:08:00,
2014-01-24 09:09:00,0.5,-7.3,30.35,WSW,257,1.0,4.0,69,0.00,,,0.00,Wunderground v.1.15,2014-01-24 14:09:00,
2014-01-24 09:12:00,0.7,-7.4,30.35,WSW,243,1.0,4.0,68,0.00,,,0.00,Wunderground v.1.15,2014-01-24 14:12:00,
2014-01-24 09:13:00,0.7,-7.4,30.35,South,183,4.0,4.0,68,0.00,,,0.00,Wunderground v.1.15,2014-01-24 14:13:00,
2014-01-24 09:14:00,0.8,-7.0,30.35,South,183,1.0,5.0,69,0.00,,,0.00,Wunderground v.1.15,2014-01-24 14:14:00,
2014-01-24 09:15:00,0.8,-7.0,30.35,South,183,5.0,5.0,69,0.00,,,0.00,Wunderground v.1.15,2014-01-24 14:15:00,
2014-01-24 09:17:00,1.0,-7.1,30.35,SE,131,4.0,5.0,68,0.00,,,0.00,Wunderground v.1.15,2014-01-24 14:17:00,
2014-01-24 09:18:00,1.0,-6.8,30.35,SE,136,1.0,5.0,69,0.00,,,0.00,Wunderground v.1.15,2014-01-24 14:18:00,
2014-01-24 09:19:00,1.1,-7.0,30.35,SSE,167,0.0,5.0,68,0.00,,,0.00,Wunderground v.1.15,2014-01-24 14:19:00,
2014-01-24 09:20:00,1.2,-6.9,30.35,SSE,167,2.0,2.0,68,0.00,,,0.00,Wunderground v.1.15,2014-01-24 14:20:00,
2014-01-24 09:22:00,1.3,-7.1,30.34,SSE,167,0.0,2.0,67,0.00,,,0.00,Wunderground v.1.15,2014-01-24 14:22:00,
2014-01-24 09:23:00,1.4,-7.0,30.34,SSE,167,1.0,2.0,67,0.00,,,0.00,Wunderground v.1.15,2014-01-24 14:23:00,
2014-01-24 09:24:00,1.5,-6.6,30.34,SSE,167,1.0,2.0,68,0.00,,,0.00,Wunderground v.1.15,2014-01-24 14:24:00,
2014-01-24 09:25:00,1.6,-6.5,30.34,SSE,167,3.0,3.0,68,0.00,,,0.00,Wunderground v.1.15,2014-01-24 14:25:00,
2014-01-24 09:27:00,1.5,-7.6,30.35,SE,144,3.0,7.0,65,0.00,,,0.00,Wunderground v.1.15,2014-01-24 14:27:00,
2014-01-24 09:28:00,1.5,-7.6,30.34,SE,131,3.0,7.0,65,0.00,,,0.00,Wunderground v.1.15,2014-01-24 14:28:00,
2014-01-24 09:29:00,1.5,-7.6,30.35,SW,226,5.0,7.0,65,0.00,,,0.00,Wunderground v.1.15,2014-01-24 14:29:00,
2014-01-24 09:30:00,1.5,-7.6,30.35,SW,229,7.0,7.0,65,0.00,,,0.00,Wunderground v.1.15,2014-01-24 14:30:00,
2014-01-24 09:32:00,1.4,-7.6,30.34,WSW,239,3.0,7.0,65,0.00,,,0.00,Wunderground v.1.15,2014-01-24 14:32:00,
2014-01-24 09:33:00,1.4,-7.6,30.35,SW,218,1.0,7.0,65,0.00,,,0.00,Wunderground v.1.15,2014-01-24 14:33:00,
2014-01-24 09:34:00,1.4,-7.6,30.35,SW,218,0.0,7.0,65,0.00,,,0.00,Wunderground v.1.15,2014-01-24 14:34:00,
2014-01-24 09:35:00,1.4,-7.3,30.35,South,183,1.0,7.0,66,0.00,,,0.00,Wunderground v.1.15,2014-01-24 14:35:00,
2014-01-24 09:38:00,1.8,-7.0,30.35,SSW,212,2.0,7.0,66,0.00,,,0.00,Wunderground v.1.15,2014-01-24 14:38:00,
2014-01-24 09:39:00,1.9,-6.9,30.35,SSW,210,3.0,7.0,66,0.00,,,0.00,Wunderground v.1.15,2014-01-24 14:39:00,
2014-01-24 09:40:00,1.9,-7.2,30.35,SSW,210,2.0,2.0,65,0.00,,,0.00,Wunderground v.1.15,2014-01-24 14:40:00,
2014-01-24 09:43:00,2.1,-7.0,30.34,East,98,1.0,7.0,65,0.00,,,0.00,Wunderground v.1.15,2014-01-24 14:43:00,
2014-01-24 09:44:00,2.2,-6.9,30.34,SSE,167,1.0,7.0,65,0.00,,,0.00,Wunderground v.1.15,2014-01-24 14:44:00,
2014-01-24 09:45:00,2.4,-6.4,30.34,ENE,75,3.0,8.0,66,0.00,,,0.00,Wunderground v.1.15,2014-01-24 14:45:00,
2014-01-24 09:48:00,2.6,-6.2,30.35,SSE,167,3.0,8.0,66,0.00,,,0.00,Wunderground v.1.15,2014-01-24 14:48:00,
2014-01-24 09:49:00,2.6,-6.8,30.35,East,92,2.0,8.0,64,0.00,,,0.00,Wunderground v.1.15,2014-01-24 14:49:00,
2014-01-24 09:50:00,2.7,-6.7,30.34,SSE,167,2.0,2.0,64,0.00,,,0.00,Wunderground v.1.15,2014-01-24 14:50:00,
2014-01-24 09:51:00,2.7,-6.7,30.34,SSE,167,4.0,5.0,64,0.00,,,0.00,Wunderground v.1.15,2014-01-24 14:51:00,
2014-01-24 09:53:00,2.7,-7.1,30.34,SSE,167,1.0,5.0,63,0.00,,,0.00,Wunderground v.1.15,2014-01-24 14:53:00,
2014-01-24 09:54:00,2.8,-6.6,30.34,SSE,167,4.0,5.0,64,0.00,,,0.00,Wunderground v.1.15,2014-01-24 14:54:00,
2014-01-24 09:55:00,2.8,-6.6,30.34,SSW,204,4.0,6.0,64,0.00,,,0.00,Wunderground v.1.15,2014-01-24 14:55:00,
2014-01-24 09:56:00,2.8,-7.0,30.34,WNW,294,0.0,6.0,63,0.00,,,0.00,Wunderground v.1.15,2014-01-24 14:56:00,
2014-01-24 09:57:00,2.9,-6.9,30.34,South,183,2.0,6.0,63,0.00,,,0.00,Wunderground v.1.15,2014-01-24 14:57:00,
2014-01-24 09:58:00,2.9,-6.9,30.34,South,183,2.0,6.0,63,0.00,,,0.00,Wunderground v.1.15,2014-01-24 14:58:00,
2014-01-24 09:59:00,3.0,-6.4,30.34,SW,224,1.0,6.0,64,0.00,,,0.00,Wunderground v.1.15,2014-01-24 14:59:00,
2014-01-24 10:01:00,3.4,-6.1,30.34,SW,224,4.0,4.0,64,0.00,,,0.00,Wunderground v.1.15,2014-01-24 15:01:00,
2014-01-24 10:02:00,3.4,-6.1,30.34,SW,219,5.0,5.0,64,0.00,,,0.00,Wunderground v.1.15,2014-01-24 15:02:00,
2014-01-24 10:03:00,3.5,-6.3,30.34,SW,228,2.0,6.0,63,0.00,,,0.00,Wunderground v.1.15,2014-01-24 15:03:00,
2014-01-24 10:04:00,3.5,-6.6,30.34,SW,224,1.0,6.0,62,0.00,,,0.00,Wunderground v.1.15,2014-01-24 15:04:00,
2014-01-24 10:07:00,3.6,-6.5,30.34,WSW,245,1.0,6.0,62,0.00,,,0.00,Wunderground v.1.15,2014-01-24 15:07:00,
2014-01-24 10:09:00,3.7,-6.4,30.34,SW,214,2.0,6.0,62,0.00,,,0.00,Wunderground v.1.15,2014-01-24 15:09:00,
2014-01-24 10:10:00,3.8,-6.3,30.34,South,183,2.0,2.0,62,0.00,,,0.00,Wunderground v.1.15,2014-01-24 15:10:00,
2014-01-24 10:12:00,3.8,-6.7,30.34,SW,231,2.0,9.0,61,0.00,,,0.00,Wunderground v.1.15,2014-01-24 15:12:00,
2014-01-24 10:13:00,3.7,-7.1,30.34,WSW,252,3.0,9.0,60,0.00,,,0.00,Wunderground v.1.15,2014-01-24 15:13:00,
2014-01-24 10:14:00,3.7,-6.8,30.34,North,360,2.0,9.0,61,0.00,,,0.00,Wunderground v.1.15,2014-01-24 15:14:00,
2014-01-24 10:15:00,3.7,-6.8,30.34,SSE,158,2.0,9.0,61,0.00,,,0.00,Wunderground v.1.15,2014-01-24 15:15:00,
2014-01-24 10:17:00,3.9,-6.2,30.34,SSE,158,0.0,11.0,62,0.00,,,0.00,Wunderground v.1.15,2014-01-24 15:17:00,
2014-01-24 10:18:00,4.0,-6.1,30.34,SSE,167,3.0,11.0,62,0.00,,,0.00,Wunderground v.1.15,2014-01-24 15:18:00,
2014-01-24 10:20:00,4.2,-6.0,30.34,SSE,167,3.0,3.0,62,0.00,,,0.00,Wunderground v.1.15,2014-01-24 15:20:00,
2014-01-24 10:22:00,4.3,-6.2,30.34,SSE,167,3.0,3.0,61,0.00,,,0.00,Wunderground v.1.15,2014-01-24 15:22:00,
2014-01-24 10:23:00,4.3,-6.2,30.34,SSE,167,4.0,4.0,61,0.00,,,0.00,Wunderground v.1.15,2014-01-24 15:23:00,
2014-01-24 10:25:00,4.3,-6.5,30.34,SSE,167,7.0,7.0,60,0.00,,,0.00,Wunderground v.1.15,2014-01-24 15:25:00,
2014-01-24 10:27:00,4.3,-6.5,30.34,SSE,167,5.0,7.0,60,0.00,,,0.00,Wunderground v.1.15,2014-01-24 15:27:00,
2014-01-24 10:28:00,4.3,-6.5,30.34,SSE,167,5.0,7.0,60,0.00,,,0.00,Wunderground v.1.15,2014-01-24 15:28:00,
2014-01-24 10:30:00,4.3,-6.5,30.34,SSE,167,8.0,8.0,60,0.00,,,0.00,Wunderground v.1.15,2014-01-24 15:30:00,
2014-01-24 10:32:00,4.3,-6.5,30.34,SSE,167,3.0,8.0,60,0.00,,,0.00,Wunderground v.1.15,2014-01-24 15:32:00,
2014-01-24 10:33:00,4.4,-6.4,30.34,SSE,167,3.0,8.0,60,0.00,,,0.00,Wunderground v.1.15,2014-01-24 15:33:00,
2014-01-24 10:34:00,4.4,-6.4,30.33,SSW,205,2.0,8.0,60,0.00,,,0.00,Wunderground v.1.15,2014-01-24 15:34:00,
2014-01-24 10:35:00,4.4,-6.4,30.34,WSW,242,3.0,8.0,60,0.00,,,0.00,Wunderground v.1.15,2014-01-24 15:35:00,
2014-01-24 10:37:00,4.6,-6.3,30.34,WSW,252,1.0,8.0,60,0.00,,,0.00,Wunderground v.1.15,2014-01-24 15:37:00,
2014-01-24 10:38:00,4.6,-6.3,30.33,SW,228,4.0,8.0,60,0.00,,,0.00,Wunderground v.1.15,2014-01-24 15:38:00,
2014-01-24 10:39:00,4.6,-6.6,30.33,SSW,210,1.0,8.0,59,0.00,,,0.00,Wunderground v.1.15,2014-01-24 15:39:00,
2014-01-24 10:40:00,4.7,-6.2,30.34,WSW,239,1.0,3.0,60,0.00,,,0.00,Wunderground v.1.15,2014-01-24 15:40:00,
2014-01-24 10:42:00,4.9,-6.0,30.33,SW,220,8.0,8.0,60,0.00,,,0.00,Wunderground v.1.15,2014-01-24 15:42:00,
2014-01-24 10:43:00,4.9,-6.3,30.34,SW,224,7.0,8.0,59,0.00,,,0.00,Wunderground v.1.15,2014-01-24 15:43:00,
2014-01-24 10:44:00,4.9,-6.3,30.34,South,183,12.0,12.0,59,0.00,,,0.00,Wunderground v.1.15,2014-01-24 15:44:00,
2014-01-24 10:45:00,4.9,-6.3,30.33,SW,233,7.0,12.0,59,0.00,,,0.00,Wunderground v.1.15,2014-01-24 15:45:00,
2014-01-24 10:46:00,4.9,-6.7,30.33,WSW,240,5.0,12.0,58,0.00,,,0.00,Wunderground v.1.15,2014-01-24 15:46:00,
2014-01-24 10:48:00,5.0,-6.2,30.33,South,183,1.0,12.0,59,0.00,,,0.00,Wunderground v.1.15,2014-01-24 15:48:00,
2014-01-24 10:49:00,5.1,-5.8,30.33,SSW,213,4.0,12.0,60,0.00,,,0.00,Wunderground v.1.15,2014-01-24 15:49:00,
2014-01-24 10:50:00,5.2,-5.7,30.33,WSW,246,6.0,6.0,60,0.00,,,0.00,Wunderground v.1.15,2014-01-24 15:50:00,
2014-01-24 10:51:00,5.4,-5.5,30.33,SW,219,3.0,6.0,60,0.00,,,0.00,Wunderground v.1.15,2014-01-24 15:51:00,
2014-01-24 10:53:00,5.5,-5.7,30.33,SW,221,4.0,6.0,59,0.00,,,0.00,Wunderground v.1.15,2014-01-24 15:53:00,
2014-01-24 10:54:00,5.6,-5.7,30.33,SW,228,8.0,8.0,59,0.00,,,0.00,Wunderground v.1.15,2014-01-24 15:54:00,
2014-01-24 10:55:00,5.7,-5.6,30.33,SW,236,2.0,8.0,59,0.00,,,0.00,Wunderground v.1.15,2014-01-24 15:55:00,
2014-01-24 10:56:00,5.8,-5.8,30.33,SW,217,1.0,8.0,58,0.00,,,0.00,Wunderground v.1.15,2014-01-24 15:56:00,
2014-01-24 10:58:00,6.0,-5.3,30.33,WSW,255,7.0,8.0,59,0.00,,,0.00,Wunderground v.1.15,2014-01-24 15:58:00,
2014-01-24 10:59:00,6.1,-5.5,30.33,SW,232,2.0,8.0,58,0.00,,,0.00,Wunderground v.1.15,2014-01-24 15:59:00,
2014-01-24 11:01:00,6.2,-5.4,30.32,West,262,3.0,3.0,58,0.00,,,0.00,Wunderground v.1.15,2014-01-24 16:01:00,
2014-01-24 11:02:00,6.3,-5.3,30.32,WNW,285,5.0,8.0,58,0.00,,,0.00,Wunderground v.1.15,2014-01-24 16:02:00,
2014-01-24 11:03:00,6.4,-5.6,30.32,West,259,3.0,8.0,57,0.00,,,0.00,Wunderground v.1.15,2014-01-24 16:03:00,
2014-01-24 11:04:00,6.6,-5.4,30.32,WSW,239,3.0,8.0,57,0.00,,,0.00,Wunderground v.1.15,2014-01-24 16:04:00,
2014-01-24 11:06:00,6.7,-5.3,30.32,SW,221,4.0,8.0,57,0.00,,,0.00,Wunderground v.1.15,2014-01-24 16:06:00,
2014-01-24 11:07:00,6.7,-5.3,30.32,SW,232,3.0,8.0,57,0.00,,,0.00,Wunderground v.1.15,2014-01-24 16:07:00,
2014-01-24 11:08:00,6.7,-5.7,30.32,SW,221,4.0,8.0,56,0.00,,,0.00,Wunderground v.1.15,2014-01-24 16:08:00,
2014-01-24 11:09:00,6.6,-5.8,30.32,SW,228,1.0,8.0,56,0.00,,,0.00,Wunderground v.1.15,2014-01-24 16:09:00,
2014-01-24 11:11:00,6.6,-5.8,30.32,SW,231,0.0,4.0,56,0.00,,,0.00,Wunderground v.1.15,2014-01-24 16:11:00,
2014-01-24 11:12:00,6.6,-5.8,30.32,WNW,283,1.0,4.0,56,0.00,,,0.00,Wunderground v.1.15,2014-01-24 16:12:00,
2014-01-24 11:13:00,6.7,-5.3,30.32,East,84,3.0,4.0,57,0.00,,,0.00,Wunderground v.1.15,2014-01-24 16:13:00,
2014-01-24 11:14:00,6.9,-5.1,30.32,SSE,167,4.0,4.0,57,0.00,,,0.00,Wunderground v.1.15,2014-01-24 16:14:00,
2014-01-24 11:16:00,6.8,-6.0,30.32,SSE,167,3.0,5.0,55,0.00,,,0.00,Wunderground v.1.15,2014-01-24 16:16:00,
2014-01-24 11:17:00,6.8,-6.0,30.32,SSE,167,2.0,5.0,55,0.00,,,0.00,Wunderground v.1.15,2014-01-24 16:17:00,
2014-01-24 11:18:00,6.9,-5.5,30.32,SW,214,2.0,5.0,56,0.00,,,0.00,Wunderground v.1.15,2014-01-24 16:18:00,
2014-01-24 11:20:00,7.0,-5.4,30.32,SSW,205,2.0,5.0,56,0.00,,,0.00,Wunderground v.1.15,2014-01-24 16:20:00,
2014-01-24 11:22:00,7.1,-5.7,30.32,NNE,13,1.0,5.0,55,0.00,,,0.00,Wunderground v.1.15,2014-01-24 16:22:00,
2014-01-24 11:23:00,7.3,-5.1,30.32,ESE,102,2.0,5.0,56,0.00,,,0.00,Wunderground v.1.15,2014-01-24 16:23:00,
2014-01-24 11:25:00,7.7,-4.8,30.32,SE,124,1.0,9.0,56,0.00,,,0.00,Wunderground v.1.15,2014-01-24 16:25:00,
2014-01-24 11:27:00,7.8,-4.7,30.31,SSE,167,4.0,9.0,56,0.00,,,0.00,Wunderground v.1.15,2014-01-24 16:27:00,
2014-01-24 11:28:00,7.9,-4.9,30.31,SSE,167,2.0,9.0,55,0.00,,,0.00,Wunderground v.1.15,2014-01-24 16:28:00,
2014-01-24 11:29:00,8.0,-4.9,30.31,SE,136,1.0,9.0,55,0.00,,,0.00,Wunderground v.1.15,2014-01-24 16:29:00,
2014-01-24 11:30:00,8.1,-4.8,30.31,SE,136,0.0,2.0,55,0.00,,,0.00,Wunderground v.1.15,2014-01-24 16:30:00,
2014-01-24 11:32:00,8.4,-4.1,30.31,SSE,166,1.0,2.0,56,0.00,,,0.00,Wunderground v.1.15,2014-01-24 16:32:00,
2014-01-24 11:33:00,8.6,-3.9,30.31,SSE,160,0.0,2.0,56,0.00,,,0.00,Wunderground v.1.15,2014-01-24 16:33:00,
2014-01-24 11:34:00,8.8,-3.7,30.31,SSE,167,1.0,2.0,56,0.00,,,0.00,Wunderground v.1.15,2014-01-24 16:34:00,
2014-01-24 11:35:00,8.9,-4.0,30.31,SSE,167,1.0,2.0,55,0.00,,,0.00,Wunderground v.1.15,2014-01-24 16:35:00,
2014-01-24 11:37:00,9.3,-4.0,30.31,ESE,121,2.0,3.0,54,0.00,,,0.00,Wunderground v.1.15,2014-01-24 16:37:00,
2014-01-24 11:38:00,9.3,-4.4,30.31,SE,135,1.0,5.0,53,0.00,,,0.00,Wunderground v.1.15,2014-01-24 16:38:00,
2014-01-24 11:39:00,9.4,-4.3,30.31,East,91,2.0,5.0,53,0.00,,,0.00,Wunderground v.1.15,2014-01-24 16:39:00,
2014-01-24 11:40:00,9.4,-3.9,30.31,SSE,167,1.0,4.0,54,0.00,,,0.00,Wunderground v.1.15,2014-01-24 16:40:00,
2014-01-24 11:42:00,9.3,-4.0,30.30,ENE,75,1.0,4.0,54,0.00,,,0.00,Wunderground v.1.15,2014-01-24 16:42:00,
2014-01-24 11:43:00,9.3,-4.0,30.30,SE,127,1.0,4.0,54,0.00,,,0.00,Wunderground v.1.15,2014-01-24 16:43:00,
2014-01-24 11:44:00,9.2,-4.5,30.30,ENE,77,1.0,4.0,53,0.00,,,0.00,Wunderground v.1.15,2014-01-24 16:44:00,
2014-01-24 11:46:00,9.3,-4.4,30.30,SSE,166,0.0,5.0,53,0.00,,,0.00,Wunderground v.1.15,2014-01-24 16:46:00,
2014-01-24 11:47:00,9.4,-3.9,30.30,SSE,167,1.0,5.0,54,0.00,,,0.00,Wunderground v.1.15,2014-01-24 16:47:00,
2014-01-24 11:49:00,9.6,-4.1,30.30,SSE,167,4.0,5.0,53,0.00,,,0.00,Wunderground v.1.15,2014-01-24 16:49:00,
2014-01-24 11:50:00,9.7,-4.0,30.30,SSE,167,4.0,4.0,53,0.00,,,0.00,Wunderground v.1.15,2014-01-24 16:50:00,
2014-01-24 11:51:00,9.7,-4.4,30.29,SSE,167,1.0,5.0,52,0.00,,,0.00,Wunderground v.1.15,2014-01-24 16:51:00,
2014-01-24 11:53:00,9.8,-3.9,30.29,SSE,167,2.0,6.0,53,0.00,,,0.00,Wunderground v.1.15,2014-01-24 16:53:00,
2014-01-24 11:54:00,9.8,-4.7,30.29,SSE,167,2.0,6.0,51,0.00,,,0.00,Wunderground v.1.15,2014-01-24 16:54:00,
2014-01-24 11:55:00,9.8,-4.7,30.29,SSE,167,2.0,6.0,51,0.00,,,0.00,Wunderground v.1.15,2014-01-24 16:55:00,
2014-01-24 11:56:00,9.8,-4.7,30.29,SSE,167,4.0,8.0,51,0.00,,,0.00,Wunderground v.1.15,2014-01-24 16:56:00,
2014-01-24 11:58:00,9.8,-4.3,30.29,SSE,167,4.0,8.0,52,0.00,,,0.00,Wunderground v.1.15,2014-01-24 16:58:00,
2014-01-24 12:00:00,9.8,-4.7,30.29,SSE,167,7.0,8.0,51,0.00,,,0.00,Wunderground v.1.15,2014-01-24 17:00:00,
2014-01-24 12:01:00,9.7,-5.2,30.29,SSE,167,4.0,5.0,50,0.00,,,0.00,Wunderground v.1.15,2014-01-24 17:01:00,
2014-01-24 12:03:00,9.5,-5.4,30.29,SW,236,3.0,6.0,50,0.00,,,0.00,Wunderground v.1.15,2014-01-24 17:03:00,
2014-01-24 12:05:00,9.6,-4.5,30.29,South,184,1.0,6.0,52,0.00,,,0.00,Wunderground v.1.15,2014-01-24 17:05:00,
2014-01-24 12:07:00,9.8,-4.7,30.29,South,183,1.0,6.0,51,0.00,,,0.00,Wunderground v.1.15,2014-01-24 17:07:00,
2014-01-24 12:08:00,9.9,-4.6,30.29,SW,231,3.0,6.0,51,0.00,,,0.00,Wunderground v.1.15,2014-01-24 17:08:00,
2014-01-24 12:10:00,10.1,-4.9,30.29,ENE,74,1.0,2.0,50,0.00,,,0.00,Wunderground v.1.15,2014-01-24 17:10:00,
2014-01-24 12:12:00,10.2,-4.8,30.29,SSE,167,2.0,9.0,50,0.00,,,0.00,Wunderground v.1.15,2014-01-24 17:12:00,
2014-01-24 12:13:00,10.1,-5.3,30.29,SSE,167,0.0,9.0,49,0.00,,,0.00,Wunderground v.1.15,2014-01-24 17:13:00,
2014-01-24 12:15:00,10.3,-5.1,30.29,SSE,167,1.0,9.0,49,0.00,,,0.00,Wunderground v.1.15,2014-01-24 17:15:00,
2014-01-24 12:17:00,10.6,-4.4,30.29,WSW,242,2.0,9.0,50,0.00,,,0.00,Wunderground v.1.15,2014-01-24 17:17:00,
2014-01-24 12:18:00,10.7,-4.7,30.29,SW,226,6.0,9.0,49,0.00,,,0.00,Wunderground v.1.15,2014-01-24 17:18:00,
2014-01-24 12:20:00,10.5,-5.8,30.28,SSW,211,4.0,4.0,47,0.00,,,0.00,Wunderground v.1.15,2014-01-24 17:20:00,
2014-01-24 12:22:00,10.6,-5.3,30.28,WSW,245,2.0,4.0,48,0.00,,,0.00,Wunderground v.1.15,2014-01-24 17:22:00,
2014-01-24 12:23:00,10.6,-4.8,30.28,SW,231,4.0,6.0,49,0.00,,,0.00,Wunderground v.1.15,2014-01-24 17:23:00,
2014-01-24 12:26:00,10.7,-5.6,30.28,WSW,242,4.0,8.0,47,0.00,,,0.00,Wunderground v.1.15,2014-01-24 17:26:00,
2014-01-24 12:27:00,10.7,-5.6,30.28,SW,231,1.0,8.0,47,0.00,,,0.00,Wunderground v.1.15,2014-01-24 17:27:00,
2014-01-24 12:28:00,10.7,-5.2,30.28,WSW,237,4.0,8.0,48,0.00,,,0.00,Wunderground v.1.15,2014-01-24 17:28:00,
2014-01-24 12:31:00,10.9,-5.4,30.28,SW,224,13.0,13.0,47,0.00,,,0.00,Wunderground v.1.15,2014-01-24 17:31:00,
2014-01-24 12:32:00,10.9,-6.3,30.28,SSW,210,6.0,13.0,45,0.00,,,0.00,Wunderground v.1.15,2014-01-24 17:32:00,
2014-01-24 12:33:00,10.7,-6.5,30.28,SW,224,8.0,13.0,45,0.00,,,0.00,Wunderground v.1.15,2014-01-24 17:33:00,
2014-01-24 12:34:00,10.7,-6.1,30.28,SW,232,6.0,13.0,46,0.00,,,0.00,Wunderground v.1.15,2014-01-24 17:34:00,
2014-01-24 12:36:00,10.7,-6.5,30.28,SSW,193,2.0,13.0,45,0.00,,,0.00,Wunderground v.1.15,2014-01-24 17:36:00,
2014-01-24 12:37:00,10.8,-6.4,30.28,WSW,255,2.0,13.0,45,0.00,,,0.00,Wunderground v.1.15,2014-01-24 17:37:00,
2014-01-24 12:38:00,10.8,-6.4,30.28,WSW,238,2.0,13.0,45,0.00,,,0.00,Wunderground v.1.15,2014-01-24 17:38:00,
2014-01-24 12:39:00,11.0,-5.8,30.28,SW,224,2.0,13.0,46,0.00,,,0.00,Wunderground v.1.15,2014-01-24 17:39:00,
2014-01-24 12:41:00,11.1,-5.7,30.28,West,260,5.0,5.0,46,0.00,,,0.00,Wunderground v.1.15,2014-01-24 17:41:00,
2014-01-24 12:42:00,11.2,-6.0,30.28,West,272,1.0,5.0,45,0.00,,,0.00,Wunderground v.1.15,2014-01-24 17:42:00,
2014-01-24 12:43:00,11.3,-5.5,30.28,SSE,167,4.0,5.0,46,0.00,,,0.00,Wunderground v.1.15,2014-01-24 17:43:00,
2014-01-24 12:44:00,11.3,-5.5,30.28,SSE,167,5.0,8.0,46,0.00,,,0.00,Wunderground v.1.15,2014-01-24 17:44:00,
2014-01-24 12:45:00,11.3,-6.4,30.28,SSE,167,2.0,8.0,44,0.00,,,0.00,Wunderground v.1.15,2014-01-24 17:45:00,
2014-01-24 12:46:00,11.3,-6.4,30.28,SSE,167,1.0,8.0,44,0.00,,,0.00,Wunderground v.1.15,2014-01-24 17:46:00,
2014-01-24 12:47:00,11.3,-6.4,30.28,SSE,167,0.0,8.0,44,0.00,,,0.00,Wunderground v.1.15,2014-01-24 17:47:00,
2014-01-24 12:48:00,11.4,-5.9,30.27,SSE,167,0.0,8.0,45,0.00,,,0.00,Wunderground v.1.15,2014-01-24 17:48:00,
2014-01-24 12:49:00,11.5,-5.3,30.28,ESE,109,1.0,8.0,46,0.00,,,0.00,Wunderground v.1.15,2014-01-24 17:49:00,
2014-01-24 12:50:00,11.6,-4.8,30.28,East,79,1.0,2.0,47,0.00,,,0.00,Wunderground v.1.15,2014-01-24 17:50:00,
2014-01-24 12:51:00,11.8,-4.2,30.28,SSE,167,2.0,3.0,48,0.00,,,0.00,Wunderground v.1.15,2014-01-24 17:51:00,
2014-01-24 12:52:00,12.0,-4.4,30.28,SSE,167,1.0,3.0,47,0.00,,,0.00,Wunderground v.1.15,2014-01-24 17:52:00,
2014-01-24 12:53:00,12.2,-4.7,30.27,SSE,167,2.0,4.0,46,0.00,,,0.00,Wunderground v.1.15,2014-01-24 17:53:00,
2014-01-24 12:54:00,12.4,-5.4,30.27,SSE,167,7.0,7.0,44,0.00,,,0.00,Wunderground v.1.15,2014-01-24 17:54:00,
2014-01-24 12:55:00,12.3,-5.5,30.27,SSE,167,2.0,8.0,44,0.00,,,0.00,Wunderground v.1.15,2014-01-24 17:55:00,
2014-01-24 12:56:00,12.2,-6.6,30.27,SSE,167,0.0,8.0,42,0.00,,,0.00,Wunderground v.1.15,2014-01-24 17:56:00,
2014-01-24 12:57:00,12.2,-6.6,30.27,SSE,167,4.0,8.0,42,0.00,,,0.00,Wunderground v.1.15,2014-01-24 17:57:00,
2014-01-24 12:59:00,12.3,-6.5,30.27,SSE,167,3.0,8.0,42,0.00,,,0.00,Wunderground v.1.15,2014-01-24 17:59:00,
2014-01-24 13:01:00,12.3,-6.5,30.27,SSE,167,2.0,2.0,42,0.00,,,0.00,Wunderground v.1.15,2014-01-24 18:01:00,
2014-01-24 13:02:00,12.4,-5.9,30.27,SSE,156,0.0,2.0,43,0.00,,,0.00,Wunderground v.1.15,2014-01-24 18:02:00,
2014-01-24 13:04:00,12.7,-4.7,30.27,SSE,167,2.0,2.0,45,0.00,,,0.00,Wunderground v.1.15,2014-01-24 18:04:00,
2014-01-24 13:05:00,12.8,-5.5,30.27,East,89,3.0,6.0,43,0.00,,,0.00,Wunderground v.1.15,2014-01-24 18:05:00,
2014-01-24 13:07:00,12.9,-5.9,30.27,East,94,2.0,6.0,42,0.00,,,0.00,Wunderground v.1.15,2014-01-24 18:07:00,
2014-01-24 13:09:00,13.0,-5.3,30.27,SSE,167,2.0,6.0,43,0.00,,,0.00,Wunderground v.1.15,2014-01-24 18:09:00,
2014-01-24 13:10:00,13.1,-5.7,30.27,SSE,167,1.0,7.0,42,0.00,,,0.00,Wunderground v.1.15,2014-01-24 18:10:00,
2014-01-24 13:12:00,13.0,-6.3,30.28,West,278,2.0,6.0,41,0.00,,,0.00,Wunderground v.1.15,2014-01-24 18:12:00,
2014-01-24 13:13:00,12.9,-6.9,30.27,South,183,1.0,6.0,40,0.00,,,0.00,Wunderground v.1.15,2014-01-24 18:13:00,
2014-01-24 13:14:00,12.8,-7.0,30.27,SW,224,0.0,6.0,40,0.00,,,0.00,Wunderground v.1.15,2014-01-24 18:14:00,
2014-01-24 13:15:00,12.8,-6.5,30.27,South,183,2.0,6.0,41,0.00,,,0.00,Wunderground v.1.15,2014-01-24 18:15:00,
2014-01-24 13:17:00,12.8,-6.0,30.27,SW,214,1.0,6.0,42,0.00,,,0.00,Wunderground v.1.15,2014-01-24 18:17:00,
2014-01-24 13:18:00,12.7,-6.1,30.27,SSW,197,2.0,6.0,42,0.00,,,0.00,Wunderground v.1.15,2014-01-24 18:18:00,
2014-01-24 13:19:00,12.7,-6.6,30.27,SSW,208,2.0,6.0,41,0.00,,,0.00,Wunderground v.1.15,2014-01-24 18:19:00,
2014-01-24 13:20:00,12.7,-7.1,30.27,South,183,1.0,6.0,40,0.00,,,0.00,Wunderground v.1.15,2014-01-24 18:20:00,
2014-01-24 13:22:00,12.8,-6.5,30.27,SSW,200,2.0,2.0,41,0.00,,,0.00,Wunderground v.1.15,2014-01-24 18:22:00,
2014-01-24 13:24:00,12.7,-7.1,30.27,WSW,252,0.0,7.0,40,0.00,,,0.00,Wunderground v.1.15,2014-01-24 18:24:00,
2014-01-24 13:25:00,12.8,-7.0,30.27,South,183,7.0,7.0,40,0.00,,,0.00,Wunderground v.1.15,2014-01-24 18:25:00,
2014-01-24 13:26:00,12.7,-7.1,30.27,West,272,1.0,7.0,40,0.00,,,0.00,Wunderground v.1.15,2014-01-24 18:26:00,
2014-01-24 13:27:00,12.8,-6.5,30.27,West,274,0.0,7.0,41,0.00,,,0.00,Wunderground v.1.15,2014-01-24 18:27:00,
2014-01-24 13:28:00,12.8,-6.5,30.27,SSW,207,1.0,7.0,41,0.00,,,0.00,Wunderground v.1.15,2014-01-24 18:28:00,
2014-01-24 13:29:00,13.0,-6.3,30.27,SW,224,3.0,7.0,41,0.00,,,0.00,Wunderground v.1.15,2014-01-24 18:29:00,
2014-01-24 13:30:00,13.0,-6.8,30.27,WNW,293,2.0,7.0,40,0.00,,,0.00,Wunderground v.1.15,2014-01-24 18:30:00,
2014-01-24 13:32:00,13.0,-6.3,30.27,South,183,4.0,4.0,41,0.00,,,0.00,Wunderground v.1.15,2014-01-24 18:32:00,
2014-01-24 13:33:00,13.0,-6.3,30.27,WSW,252,1.0,4.0,41,0.00,,,0.00,Wunderground v.1.15,2014-01-24 18:33:00,
2014-01-24 13:35:00,12.9,-6.9,30.27,SSW,210,2.0,4.0,40,0.00,,,0.00,Wunderground v.1.15,2014-01-24 18:35:00,
2014-01-24 13:37:00,12.9,-6.9,30.27,South,183,0.0,4.0,40,0.00,,,0.00,Wunderground v.1.15,2014-01-24 18:37:00,
2014-01-24 13:38:00,12.9,-6.9,30.27,SW,217,1.0,4.0,40,0.00,,,0.00,Wunderground v.1.15,2014-01-24 18:38:00,
2014-01-24 13:40:00,13.0,-6.8,30.27,SSW,207,3.0,6.0,40,0.00,,,0.00,Wunderground v.1.15,2014-01-24 18:40:00,
2014-01-24 13:41:00,13.1,-6.7,30.27,SW,222,2.0,3.0,40,0.00,,,0.00,Wunderground v.1.15,2014-01-24 18:41:00,
2014-01-24 13:42:00,13.0,-7.4,30.27,West,273,2.0,6.0,39,0.00,,,0.00,Wunderground v.1.15,2014-01-24 18:42:00,
2014-01-24 13:43:00,12.9,-7.4,30.27,South,183,2.0,6.0,39,0.00,,,0.00,Wunderground v.1.15,2014-01-24 18:43:00,
2014-01-24 13:45:00,12.7,-7.6,30.27,WSW,238,4.0,7.0,39,0.00,,,0.00,Wunderground v.1.15,2014-01-24 18:45:00,
2014-01-24 13:46:00,12.5,-8.3,30.27,SW,226,1.0,7.0,38,0.00,,,0.00,Wunderground v.1.15,2014-01-24 18:46:00,
2014-01-24 13:47:00,12.4,-8.4,30.27,West,266,5.0,7.0,38,0.00,,,0.00,Wunderground v.1.15,2014-01-24 18:47:00,
2014-01-24 13:48:00,12.4,-7.9,30.27,SSW,211,5.0,7.0,39,0.00,,,0.00,Wunderground v.1.15,2014-01-24 18:48:00,
2014-01-24 13:51:00,12.1,-8.2,30.27,WSW,240,2.0,3.0,39,0.00,,,0.00,Wunderground v.1.15,2014-01-24 18:51:00,
2014-01-24 13:53:00,12.2,-7.1,30.27,South,184,2.0,3.0,41,0.00,,,0.00,Wunderground v.1.15,2014-01-24 18:53:00,
2014-01-24 13:56:00,12.3,-7.5,30.26,South,183,1.0,9.0,40,0.00,,,0.00,Wunderground v.1.15,2014-01-24 18:56:00,
2014-01-24 13:58:00,12.3,-7.5,30.26,SW,232,7.0,9.0,40,0.00,,,0.00,Wunderground v.1.15,2014-01-24 18:58:00,
2014-01-24 14:01:00,11.9,-8.4,30.26,SW,218,2.0,4.0,39,0.00,,,0.00,Wunderground v.1.15,2014-01-24 19:01:00,
2014-01-24 14:02:00,11.9,-8.4,30.26,SW,224,1.0,4.0,39,0.00,,,0.00,Wunderground v.1.15,2014-01-24 19:02:00,
2014-01-24 14:03:00,12.0,-7.7,30.26,SW,235,1.0,4.0,40,0.00,,,0.00,Wunderground v.1.15,2014-01-24 19:03:00,
2014-01-24 14:04:00,12.1,-7.7,30.26,WSW,237,4.0,4.0,40,0.00,,,0.00,Wunderground v.1.15,2014-01-24 19:04:00,
2014-01-24 14:07:00,12.3,-7.0,30.26,South,183,2.0,5.0,41,0.00,,,0.00,Wunderground v.1.15,2014-01-24 19:07:00,
2014-01-24 14:08:00,12.4,-6.4,30.26,South,183,0.0,5.0,42,0.00,,,0.00,Wunderground v.1.15,2014-01-24 19:08:00,
2014-01-24 14:09:00,12.4,-6.4,30.26,South,183,0.0,5.0,42,0.00,,,0.00,Wunderground v.1.15,2014-01-24 19:09:00,
2014-01-24 14:10:00,12.5,-6.8,30.26,South,183,2.0,4.0,41,0.00,,,0.00,Wunderground v.1.15,2014-01-24 19:10:00,
2014-01-24 14:12:00,12.6,-6.7,30.26,SW,235,2.0,5.0,41,0.00,,,0.00,Wunderground v.1.15,2014-01-24 19:12:00,
2014-01-24 14:13:00,12.6,-7.2,30.25,SSE,167,3.0,8.0,40,0.00,,,0.00,Wunderground v.1.15,2014-01-24 19:13:00,
2014-01-24 14:14:00,12.4,-6.4,30.25,SSE,167,4.0,8.0,42,0.00,,,0.00,Wunderground v.1.15,2014-01-24 19:14:00,
2014-01-24 14:15:00,12.4,-6.9,30.25,SSE,167,4.0,8.0,41,0.00,,,0.00,Wunderground v.1.15,2014-01-24 19:15:00,
2014-01-24 14:17:00,12.1,-7.7,30.25,SSE,167,1.0,8.0,40,0.00,,,0.00,Wunderground v.1.15,2014-01-24 19:17:00,
2014-01-24 14:18:00,12.1,-7.1,30.26,SSE,155,1.0,8.0,41,0.00,,,0.00,Wunderground v.1.15,2014-01-24 19:18:00,
2014-01-24 14:19:00,12.1,-7.1,30.26,SSE,167,2.0,8.0,41,0.00,,,0.00,Wunderground v.1.15,2014-01-24 19:19:00,
2014-01-24 14:20:00,12.1,-6.6,30.26,SSE,167,1.0,2.0,42,0.00,,,0.00,Wunderground v.1.15,2014-01-24 19:20:00,
2014-01-24 14:22:00,12.2,-7.1,30.25,SSE,167,3.0,8.0,41,0.00,,,0.00,Wunderground v.1.15,2014-01-24 19:22:00,
2014-01-24 14:24:00,12.2,-7.6,30.25,SSE,167,4.0,8.0,40,0.00,,,0.00,Wunderground v.1.15,2014-01-24 19:24:00,
2014-01-24 14:25:00,12.2,-7.6,30.25,SSE,167,2.0,8.0,40,0.00,,,0.00,Wunderground v.1.15,2014-01-24 19:25:00,
2014-01-24 14:28:00,12.2,-7.6,30.25,SSE,167,2.0,8.0,40,0.00,,,0.00,Wunderground v.1.15,2014-01-24 19:28:00,
2014-01-24 14:29:00,12.2,-7.1,30.25,SE,129,1.0,8.0,41,0.00,,,0.00,Wunderground v.1.15,2014-01-24 19:29:00,
2014-01-24 14:30:00,12.3,-7.0,30.25,SSE,167,1.0,2.0,41,0.00,,,0.00,Wunderground v.1.15,2014-01-24 19:30:00,
2014-01-24 14:33:00,12.4,-5.9,30.25,SSE,167,2.0,4.0,43,0.00,,,0.00,Wunderground v.1.15,2014-01-24 19:33:00,
2014-01-24 14:34:00,12.5,-5.8,30.25,SSW,210,2.0,5.0,43,0.00,,,0.00,Wunderground v.1.15,2014-01-24 19:34:00,
2014-01-24 14:35:00,12.5,-5.8,30.25,South,183,1.0,5.0,43,0.00,,,0.00,Wunderground v.1.15,2014-01-24 19:35:00,
2014-01-24 14:36:00,12.5,-6.3,30.25,South,183,3.0,5.0,42,0.00,,,0.00,Wunderground v.1.15,2014-01-24 19:36:00,
2014-01-24 14:38:00,12.4,-5.9,30.25,South,182,2.0,5.0,43,0.00,,,0.00,Wunderground v.1.15,2014-01-24 19:38:00,
2014-01-24 14:39:00,12.3,-6.5,30.25,South,182,2.0,5.0,42,0.00,,,0.00,Wunderground v.1.15,2014-01-24 19:39:00,
2014-01-24 14:40:00,12.2,-6.6,30.25,South,181,1.0,4.0,42,0.00,,,0.00,Wunderground v.1.15,2014-01-24 19:40:00,
2014-01-24 14:41:00,12.1,-6.2,30.25,South,182,0.0,4.0,43,0.00,,,0.00,Wunderground v.1.15,2014-01-24 19:41:00,
2014-01-24 14:43:00,12.1,-6.6,30.25,SSW,207,2.0,6.0,42,0.00,,,0.00,Wunderground v.1.15,2014-01-24 19:43:00,
2014-01-24 14:45:00,12.1,-7.1,30.25,WSW,240,4.0,6.0,41,0.00,,,0.00,Wunderground v.1.15,2014-01-24 19:45:00,
2014-01-24 14:46:00,12.1,-7.1,30.25,SW,221,6.0,8.0,41,0.00,,,0.00,Wunderground v.1.15,2014-01-24 19:46:00,
2014-01-24 14:48:00,12.1,-6.6,30.25,WSW,249,2.0,8.0,42,0.00,,,0.00,Wunderground v.1.15,2014-01-24 19:48:00,
2014-01-24 14:50:00,12.2,-6.6,30.25,SSW,210,3.0,8.0,42,0.00,,,0.00,Wunderground v.1.15,2014-01-24 19:50:00,
2014-01-24 14:51:00,12.1,-7.1,30.25,West,268,2.0,5.0,41,0.00,,,0.00,Wunderground v.1.15,2014-01-24 19:51:00,
2014-01-24 14:52:00,12.1,-7.1,30.25,SSW,201,1.0,5.0,41,0.00,,,0.00,Wunderground v.1.15,2014-01-24 19:52:00,
2014-01-24 14:53:00,12.1,-6.6,30.25,South,182,2.0,5.0,42,0.00,,,0.00,Wunderground v.1.15,2014-01-24 19:53:00,
2014-01-24 14:55:00,12.0,-6.3,30.25,South,183,0.0,5.0,43,0.00,,,0.00,Wunderground v.1.15,2014-01-24 19:55:00,
2014-01-24 14:56:00,11.9,-5.9,30.25,West,264,1.0,5.0,44,0.00,,,0.00,Wunderground v.1.15,2014-01-24 19:56:00,
2014-01-24 14:57:00,11.9,-6.8,30.25,SSW,208,1.0,5.0,42,0.00,,,0.00,Wunderground v.1.15,2014-01-24 19:57:00,
2014-01-24 14:59:00,11.8,-6.9,30.25,SW,214,2.0,5.0,42,0.00,,,0.00,Wunderground v.1.15,2014-01-24 19:59:00,
2014-01-24 15:01:00,11.7,-7.0,30.24,SW,214,1.0,2.0,42,0.00,,,0.00,Wunderground v.1.15,2014-01-24 20:01:00,
2014-01-24 15:02:00,11.7,-7.0,30.24,South,183,0.0,2.0,42,0.00,,,0.00,Wunderground v.1.15,2014-01-24 20:02:00,
2014-01-24 15:03:00,11.7,-6.5,30.24,SSW,201,1.0,2.0,43,0.00,,,0.00,Wunderground v.1.15,2014-01-24 20:03:00,
2014-01-24 15:04:00,11.9,-5.9,30.24,WSW,243,1.0,2.0,44,0.00,,,0.00,Wunderground v.1.15,2014-01-24 20:04:00,
2014-01-24 15:07:00,11.9,-5.9,30.24,SW,235,3.0,3.0,44,0.00,,,0.00,Wunderground v.1.15,2014-01-24 20:07:00,
2014-01-24 15:08:00,11.9,-6.3,30.25,SSW,210,2.0,4.0,43,0.00,,,0.00,Wunderground v.1.15,2014-01-24 20:08:00,
2014-01-24 15:09:00,11.8,-6.9,30.25,SW,222,2.0,4.0,42,0.00,,,0.00,Wunderground v.1.15,2014-01-24 20:09:00,
2014-01-24 15:12:00,11.5,-7.2,30.25,SW,224,2.0,6.0,42,0.00,,,0.00,Wunderground v.1.15,2014-01-24 20:12:00,
2014-01-24 15:13:00,11.4,-7.3,30.25,SW,226,3.0,6.0,42,0.00,,,0.00,Wunderground v.1.15,2014-01-24 20:13:00,
2014-01-24 15:15:00,11.3,-7.4,30.24,West,263,2.0,6.0,42,0.00,,,0.00,Wunderground v.1.15,2014-01-24 20:15:00,
2014-01-24 15:17:00,11.1,-7.6,30.24,WSW,237,1.0,6.0,42,0.00,,,0.00,Wunderground v.1.15,2014-01-24 20:17:00,
2014-01-24 15:18:00,11.1,-7.6,30.24,SW,236,1.0,6.0,42,0.00,,,0.00,Wunderground v.1.15,2014-01-24 20:18:00,
2014-01-24 15:20:00,11.2,-7.0,30.24,SW,217,1.0,2.0,43,0.00,,,0.00,Wunderground v.1.15,2014-01-24 20:20:00,
2014-01-24 15:22:00,11.4,-6.8,30.24,SW,228,0.0,2.0,43,0.00,,,0.00,Wunderground v.1.15,2014-01-24 20:22:00,
2014-01-24 15:23:00,11.4,-6.8,30.24,SW,226,0.0,2.0,43,0.00,,,0.00,Wunderground v.1.15,2014-01-24 20:23:00,
2014-01-24 15:24:00,11.4,-6.3,30.24,SW,221,1.0,2.0,44,0.00,,,0.00,Wunderground v.1.15,2014-01-24 20:24:00,
2014-01-24 15:26:00,11.4,-6.3,30.24,SW,232,1.0,2.0,44,0.00,,,0.00,Wunderground v.1.15,2014-01-24 20:26:00,
2014-01-24 15:27:00,11.3,-6.4,30.24,SW,224,2.0,2.0,44,0.00,,,0.00,Wunderground v.1.15,2014-01-24 20:27:00,
2014-01-24 15:28:00,11.2,-6.5,30.24,WSW,246,1.0,2.0,44,0.00,,,0.00,Wunderground v.1.15,2014-01-24 20:28:00,
2014-01-24 15:29:00,11.1,-6.6,30.24,WSW,242,2.0,2.0,44,0.00,,,0.00,Wunderground v.1.15,2014-01-24 20:29:00,
2014-01-24 15:31:00,10.9,-6.8,30.24,SW,221,2.0,4.0,44,0.00,,,0.00,Wunderground v.1.15,2014-01-24 20:31:00,
2014-01-24 15:32:00,10.7,-7.0,30.25,SW,231,1.0,4.0,44,0.00,,,0.00,Wunderground v.1.15,2014-01-24 20:32:00,
2014-01-24 15:33:00,10.7,-7.0,30.25,NW,311,1.0,4.0,44,0.00,,,0.00,Wunderground v.1.15,2014-01-24 20:33:00,
2014-01-24 15:34:00,10.6,-7.1,30.25,WSW,242,1.0,4.0,44,0.00,,,0.00,Wunderground v.1.15,2014-01-24 20:34:00,
2014-01-24 15:35:00,10.5,-6.7,30.25,SSW,211,1.0,4.0,45,0.00,,,0.00,Wunderground v.1.15,2014-01-24 20:35:00,
2014-01-24 15:36:00,10.5,-6.7,30.25,SSW,208,5.0,5.0,45,0.00,,,0.00,Wunderground v.1.15,2014-01-24 20:36:00,
2014-01-24 15:37:00,10.3,-6.9,30.25,SW,214,4.0,7.0,45,0.00,,,0.00,Wunderground v.1.15,2014-01-24 20:37:00,
2014-01-24 15:38:00,10.3,-6.9,30.25,WSW,248,6.0,7.0,45,0.00,,,0.00,Wunderground v.1.15,2014-01-24 20:38:00,
2014-01-24 15:39:00,10.2,-7.0,30.25,SW,226,4.0,7.0,45,0.00,,,0.00,Wunderground v.1.15,2014-01-24 20:39:00,
2014-01-24 15:40:00,10.1,-7.1,30.24,WSW,252,2.0,3.0,45,0.00,,,0.00,Wunderground v.1.15,2014-01-24 20:40:00,
2014-01-24 15:41:00,10.0,-7.1,30.24,SW,236,1.0,5.0,45,0.00,,,0.00,Wunderground v.1.15,2014-01-24 20:41:00,
2014-01-24 15:42:00,10.0,-6.7,30.24,South,183,0.0,5.0,46,0.00,,,0.00,Wunderground v.1.15,2014-01-24 20:42:00,
2014-01-24 15:43:00,10.0,-6.7,30.24,South,183,0.0,5.0,46,0.00,,,0.00,Wunderground v.1.15,2014-01-24 20:43:00,
2014-01-24 15:45:00,9.9,-6.8,30.24,WSW,249,2.0,5.0,46,0.00,,,0.00,Wunderground v.1.15,2014-01-24 20:45:00,
2014-01-24 15:46:00,9.9,-6.8,30.24,SW,214,1.0,5.0,46,0.00,,,0.00,Wunderground v.1.15,2014-01-24 20:46:00,
2014-01-24 15:47:00,9.9,-6.8,30.24,WSW,239,1.0,5.0,46,0.00,,,0.00,Wunderground v.1.15,2014-01-24 20:47:00,
2014-01-24 15:48:00,9.9,-6.8,30.24,WSW,239,1.0,5.0,46,0.00,,,0.00,Wunderground v.1.15,2014-01-24 20:48:00,
2014-01-24 15:50:00,9.9,-6.3,30.24,SW,232,3.0,3.0,47,0.00,,,0.00,Wunderground v.1.15,2014-01-24 20:50:00,
2014-01-24 15:51:00,10.0,-6.7,30.24,WSW,255,2.0,6.0,46,0.00,,,0.00,Wunderground v.1.15,2014-01-24 20:51:00,
2014-01-24 15:53:00,10.0,-6.7,30.24,WSW,237,3.0,6.0,46,0.00,,,0.00,Wunderground v.1.15,2014-01-24 20:53:00,
2014-01-24 15:55:00,9.9,-6.8,30.24,West,276,1.0,8.0,46,0.00,,,0.00,Wunderground v.1.15,2014-01-24 20:55:00,
2014-01-24 15:56:00,9.9,-6.8,30.24,West,271,0.0,8.0,46,0.00,,,0.00,Wunderground v.1.15,2014-01-24 20:56:00,
2014-01-24 15:57:00,9.9,-6.8,30.24,WSW,249,0.0,8.0,46,0.00,,,0.00,Wunderground v.1.15,2014-01-24 20:57:00,
2014-01-24 15:58:00,9.9,-6.3,30.24,WSW,237,1.0,8.0,47,0.00,,,0.00,Wunderground v.1.15,2014-01-24 20:58:00,
2014-01-24 16:01:00,10.0,-6.3,30.24,SSW,200,2.0,2.0,47,0.00,,,0.00,Wunderground v.1.15,2014-01-24 21:01:00,
2014-01-24 16:02:00,9.9,-6.3,30.24,WSW,238,1.0,2.0,47,0.00,,,0.00,Wunderground v.1.15,2014-01-24 21:02:00,
2014-01-24 16:03:00,9.9,-6.3,30.24,SW,228,2.0,2.0,47,0.00,,,0.00,Wunderground v.1.15,2014-01-24 21:03:00,
2014-01-24 16:04:00,9.9,-5.9,30.24,NW,314,5.0,5.0,48,0.00,,,0.00,Wunderground v.1.15,2014-01-24 21:04:00,
2014-01-24 16:06:00,9.7,-6.1,30.24,SW,231,2.0,6.0,48,0.00,,,0.00,Wunderground v.1.15,2014-01-24 21:06:00,
2014-01-24 16:07:00,9.6,-6.2,30.24,WSW,238,5.0,6.0,48,0.00,,,0.00,Wunderground v.1.15,2014-01-24 21:07:00,
2014-01-24 16:08:00,9.6,-6.2,30.24,West,268,3.0,6.0,48,0.00,,,0.00,Wunderground v.1.15,2014-01-24 21:08:00,
2014-01-24 16:09:00,9.5,-6.3,30.24,WSW,255,2.0,6.0,48,0.00,,,0.00,Wunderground v.1.15,2014-01-24 21:09:00,
2014-01-24 16:11:00,9.4,-5.9,30.24,SSW,210,1.0,2.0,49,0.00,,,0.00,Wunderground v.1.15,2014-01-24 21:11:00,
2014-01-24 16:13:00,9.4,-5.5,30.24,SW,218,1.0,2.0,50,0.00,,,0.00,Wunderground v.1.15,2014-01-24 21:13:00,
2014-01-24 16:14:00,9.3,-5.6,30.24,WSW,246,0.0,4.0,50,0.00,,,0.00,Wunderground v.1.15,2014-01-24 21:14:00,
2014-01-24 16:16:00,9.2,-6.1,30.23,SSW,212,2.0,4.0,49,0.00,,,0.00,Wunderground v.1.15,2014-01-24 21:16:00,
2014-01-24 16:18:00,9.1,-5.8,30.23,WSW,257,1.0,5.0,50,0.00,,,0.00,Wunderground v.1.15,2014-01-24 21:18:00,
2014-01-24 16:19:00,9.0,-5.5,30.23,WSW,249,1.0,5.0,51,0.00,,,0.00,Wunderground v.1.15,2014-01-24 21:19:00,
2014-01-24 16:22:00,8.8,-5.7,30.23,WSW,243,1.0,1.0,51,0.00,,,0.00,Wunderground v.1.15,2014-01-24 21:22:00,
2014-01-24 16:23:00,8.8,-5.3,30.23,WSW,243,0.0,1.0,52,0.00,,,0.00,Wunderground v.1.15,2014-01-24 21:23:00,
2014-01-24 16:24:00,8.7,-5.4,30.24,WSW,243,0.0,1.0,52,0.00,,,0.00,Wunderground v.1.15,2014-01-24 21:24:00,
2014-01-24 16:27:00,8.6,-5.9,30.24,SSW,200,1.0,5.0,51,0.00,,,0.00,Wunderground v.1.15,2014-01-24 21:27:00,
2014-01-24 16:28:00,8.6,-5.5,30.24,West,262,4.0,5.0,52,0.00,,,0.00,Wunderground v.1.15,2014-01-24 21:28:00,
2014-01-24 16:29:00,8.5,-5.5,30.24,WSW,255,3.0,5.0,52,0.00,,,0.00,Wunderground v.1.15,2014-01-24 21:29:00,
2014-01-24 16:30:00,8.5,-5.5,30.24,WSW,243,2.0,2.0,52,0.00,,,0.00,Wunderground v.1.15,2014-01-24 21:30:00,
2014-01-24 16:33:00,8.4,-5.2,30.24,WSW,249,1.0,2.0,53,0.00,,,0.00,Wunderground v.1.15,2014-01-24 21:33:00,
2014-01-24 16:35:00,8.3,-5.3,30.24,West,267,2.0,6.0,53,0.00,,,0.00,Wunderground v.1.15,2014-01-24 21:35:00,
2014-01-24 16:38:00,8.1,-5.1,30.23,West,263,1.0,6.0,54,0.00,,,0.00,Wunderground v.1.15,2014-01-24 21:38:00,
2014-01-24 16:39:00,8.2,-5.0,30.23,West,263,1.0,6.0,54,0.00,,,0.00,Wunderground v.1.15,2014-01-24 21:39:00,
2014-01-24 16:40:00,8.1,-4.8,30.23,SW,235,1.0,4.0,55,0.00,,,0.00,Wunderground v.1.15,2014-01-24 21:40:00,
2014-01-24 16:41:00,8.1,-4.8,30.23,WSW,257,2.0,4.0,55,0.00,,,0.00,Wunderground v.1.15,2014-01-24 21:41:00,
2014-01-24 16:44:00,8.0,-4.9,30.23,West,272,1.0,4.0,55,0.00,,,0.00,Wunderground v.1.15,2014-01-24 21:44:00,
2014-01-24 16:46:00,7.9,-4.6,30.23,SW,228,0.0,4.0,56,0.00,,,0.00,Wunderground v.1.15,2014-01-24 21:46:00,
2014-01-24 16:49:00,7.7,-4.8,30.23,West,276,1.0,4.0,56,0.00,,,0.00,Wunderground v.1.15,2014-01-24 21:49:00,
2014-01-24 16:50:00,7.7,-4.4,30.23,SW,235,1.0,2.0,57,0.00,,,0.00,Wunderground v.1.15,2014-01-24 21:50:00,
2014-01-24 16:51:00,7.6,-4.5,30.23,SW,229,1.0,2.0,57,0.00,,,0.00,Wunderground v.1.15,2014-01-24 21:51:00,
2014-01-24 16:52:00,7.6,-4.5,30.23,SW,225,1.0,3.0,57,0.00,,,0.00,Wunderground v.1.15,2014-01-24 21:52:00,
2014-01-24 16:54:00,7.4,-4.7,30.23,WSW,249,0.0,3.0,57,0.00,,,0.00,Wunderground v.1.15,2014-01-24 21:54:00,
2014-01-24 16:55:00,7.4,-4.7,30.23,WSW,249,1.0,3.0,57,0.00,,,0.00,Wunderground v.1.15,2014-01-24 21:55:00,
2014-01-24 16:56:00,7.3,-4.4,30.23,SSW,208,2.0,3.0,58,0.00,,,0.00,Wunderground v.1.15,2014-01-24 21:56:00,
2014-01-24 16:57:00,7.3,-4.4,30.23,SW,226,1.0,4.0,58,0.00,,,0.00,Wunderground v.1.15,2014-01-24 21:57:00,
2014-01-24 16:59:00,7.2,-4.5,30.23,SW,232,1.0,4.0,58,0.00,,,0.00,Wunderground v.1.15,2014-01-24 21:59:00,
2014-01-24 17:00:00,7.2,-4.5,30.23,SW,232,0.0,1.0,58,0.00,,,0.00,Wunderground v.1.15,2014-01-24 22:00:00,
2014-01-24 17:01:00,7.2,-4.5,30.23,WSW,242,0.0,1.0,58,0.00,,,0.00,Wunderground v.1.15,2014-01-24 22:01:00,
2014-01-24 17:02:00,7.0,-4.7,30.23,West,260,1.0,2.0,58,0.00,,,0.00,Wunderground v.1.15,2014-01-24 22:02:00,
2014-01-24 17:03:00,7.0,-4.7,30.23,West,260,0.0,2.0,58,0.00,,,0.00,Wunderground v.1.15,2014-01-24 22:03:00,
2014-01-24 17:04:00,7.0,-4.3,30.23,West,259,0.0,2.0,59,0.00,,,0.00,Wunderground v.1.15,2014-01-24 22:04:00,
2014-01-24 17:05:00,6.9,-4.4,30.23,West,259,0.0,2.0,59,0.00,,,0.00,Wunderground v.1.15,2014-01-24 22:05:00,
2014-01-24 17:07:00,6.8,-4.5,30.23,West,259,0.0,2.0,59,0.00,,,0.00,Wunderground v.1.15,2014-01-24 22:07:00,
2014-01-24 17:08:00,6.7,-4.6,30.23,West,259,0.0,2.0,59,0.00,,,0.00,Wunderground v.1.15,2014-01-24 22:08:00,
2014-01-24 17:09:00,6.6,-4.7,30.23,West,259,0.0,2.0,59,0.00,,,0.00,Wunderground v.1.15,2014-01-24 22:09:00,
2014-01-24 17:10:00,6.6,-4.7,30.23,WSW,257,0.0,0.0,59,0.00,,,0.00,Wunderground v.1.15,2014-01-24 22:10:00,
2014-01-24 17:12:00,6.5,-4.5,30.23,West,259,1.0,1.0,60,0.00,,,0.00,Wunderground v.1.15,2014-01-24 22:12:00,
2014-01-24 17:13:00,6.4,-4.5,30.23,SW,214,1.0,2.0,60,0.00,,,0.00,Wunderground v.1.15,2014-01-24 22:13:00,
2014-01-24 17:14:00,6.4,-4.5,30.23,SW,233,0.0,2.0,60,0.00,,,0.00,Wunderground v.1.15,2014-01-24 22:14:00,
2014-01-24 17:15:00,6.4,-4.5,30.23,SW,226,0.0,2.0,60,0.00,,,0.00,Wunderground v.1.15,2014-01-24 22:15:00,
2014-01-24 17:17:00,6.3,-4.6,30.24,SW,226,0.0,2.0,60,0.00,,,0.00,Wunderground v.1.15,2014-01-24 22:17:00,
2014-01-24 17:18:00,6.3,-4.3,30.24,SW,226,0.0,2.0,61,0.00,,,0.00,Wunderground v.1.15,2014-01-24 22:18:00,
2014-01-24 17:19:00,6.2,-4.4,30.23,SW,230,0.0,2.0,61,0.00,,,0.00,Wunderground v.1.15,2014-01-24 22:19:00,
2014-01-24 17:20:00,6.2,-4.4,30.24,SW,231,0.0,0.0,61,0.00,,,0.00,Wunderground v.1.15,2014-01-24 22:20:00,
2014-01-24 17:22:00,6.1,-4.5,30.23,SW,228,0.0,1.0,61,0.00,,,0.00,Wunderground v.1.15,2014-01-24 22:22:00,
2014-01-24 17:23:00,6.1,-4.5,30.23,South,191,1.0,1.0,61,0.00,,,0.00,Wunderground v.1.15,2014-01-24 22:23:00,
2014-01-24 17:24:00,6.0,-4.6,30.23,SW,232,1.0,2.0,61,0.00,,,0.00,Wunderground v.1.15,2014-01-24 22:24:00,
2014-01-24 17:25:00,6.0,-4.6,30.23,SW,232,0.0,2.0,61,0.00,,,0.00,Wunderground v.1.15,2014-01-24 22:25:00,
2014-01-24 17:26:00,5.9,-4.7,30.23,SW,232,0.0,2.0,61,0.00,,,0.00,Wunderground v.1.15,2014-01-24 22:26:00,
2014-01-24 17:28:00,5.8,-4.8,30.23,SW,232,0.0,2.0,61,0.00,,,0.00,Wunderground v.1.15,2014-01-24 22:28:00,
2014-01-24 17:29:00,5.7,-4.5,30.23,SW,236,0.0,2.0,62,0.00,,,0.00,Wunderground v.1.15,2014-01-24 22:29:00,
2014-01-24 17:30:00,5.7,-4.5,30.23,SW,236,0.0,2.0,62,0.00,,,0.00,Wunderground v.1.15,2014-01-24 22:30:00,
2014-01-24 17:31:00,5.7,-4.5,30.23,SW,236,0.0,0.0,62,0.00,,,0.00,Wunderground v.1.15,2014-01-24 22:31:00,
2014-01-24 17:33:00,5.6,-4.3,30.23,SW,236,0.0,1.0,63,0.00,,,0.00,Wunderground v.1.15,2014-01-24 22:33:00,
2014-01-24 17:34:00,5.5,-4.4,30.23,SW,236,0.0,1.0,63,0.00,,,0.00,Wunderground v.1.15,2014-01-24 22:34:00,
2014-01-24 17:35:00,5.5,-4.4,30.23,SW,236,0.0,1.0,63,0.00,,,0.00,Wunderground v.1.15,2014-01-24 22:35:00,
2014-01-24 17:37:00,5.4,-4.5,30.23,SW,236,0.0,1.0,63,0.00,,,0.00,Wunderground v.1.15,2014-01-24 22:37:00,
2014-01-24 17:38:00,5.4,-4.5,30.23,SW,236,1.0,1.0,63,0.00,,,0.00,Wunderground v.1.15,2014-01-24 22:38:00,
2014-01-24 17:39:00,5.4,-4.5,30.23,SW,236,0.0,1.0,63,0.00,,,0.00,Wunderground v.1.15,2014-01-24 22:39:00,
2014-01-24 17:40:00,5.3,-4.6,30.23,SW,236,0.0,0.0,63,0.00,,,0.00,Wunderground v.1.15,2014-01-24 22:40:00,
2014-01-24 17:42:00,5.2,-4.3,30.23,SW,236,0.0,0.0,64,0.00,,,0.00,Wunderground v.1.15,2014-01-24 22:42:00,
2014-01-24 17:43:00,5.2,-4.0,30.23,SW,236,0.0,1.0,65,0.00,,,0.00,Wunderground v.1.15,2014-01-24 22:43:00,
2014-01-24 17:44:00,5.1,-4.1,30.23,SW,236,0.0,1.0,65,0.00,,,0.00,Wunderground v.1.15,2014-01-24 22:44:00,
2014-01-24 17:45:00,5.1,-4.1,30.23,SW,231,1.0,1.0,65,0.00,,,0.00,Wunderground v.1.15,2014-01-24 22:45:00,
2014-01-24 17:48:00,5.1,-4.1,30.23,SW,226,1.0,3.0,65,0.00,,,0.00,Wunderground v.1.15,2014-01-24 22:48:00,
2014-01-24 17:49:00,5.1,-4.1,30.23,WSW,245,1.0,3.0,65,0.00,,,0.00,Wunderground v.1.15,2014-01-24 22:49:00,
2014-01-24 17:50:00,5.1,-3.8,30.23,SW,233,2.0,2.0,66,0.00,,,0.00,Wunderground v.1.15,2014-01-24 22:50:00,
2014-01-24 17:53:00,5.2,-3.7,30.23,SW,232,1.0,3.0,66,0.00,,,0.00,Wunderground v.1.15,2014-01-24 22:53:00,
2014-01-24 17:55:00,5.2,-3.7,30.23,WSW,246,2.0,3.0,66,0.00,,,0.00,Wunderground v.1.15,2014-01-24 22:55:00,
2014-01-24 17:58:00,5.3,-3.6,30.23,WSW,252,1.0,3.0,66,0.00,,,0.00,Wunderground v.1.15,2014-01-24 22:58:00,
2014-01-24 17:59:00,5.3,-3.6,30.24,WSW,252,1.0,3.0,66,0.00,,,0.00,Wunderground v.1.15,2014-01-24 22:59:00,
2014-01-24 18:01:00,5.3,-3.6,30.23,WSW,252,0.0,1.0,66,0.00,,,0.00,Wunderground v.1.15,2014-01-24 23:01:00,
2014-01-24 18:03:00,5.4,-3.5,30.23,WSW,249,0.0,1.0,66,0.00,,,0.00,Wunderground v.1.15,2014-01-24 23:03:00,
2014-01-24 18:05:00,5.3,-3.6,30.23,WSW,249,1.0,1.0,66,0.00,,,0.00,Wunderground v.1.15,2014-01-24 23:05:00,
2014-01-24 18:06:00,5.2,-3.4,30.24,WSW,249,1.0,1.0,67,0.00,,,0.00,Wunderground v.1.15,2014-01-24 23:06:00,
2014-01-24 18:09:00,5.2,-3.7,30.24,WSW,243,1.0,1.0,66,0.00,,,0.00,Wunderground v.1.15,2014-01-24 23:09:00,
2014-01-24 18:10:00,5.2,-3.7,30.23,WSW,243,0.0,1.0,66,0.00,,,0.00,Wunderground v.1.15,2014-01-24 23:10:00,
2014-01-24 18:11:00,5.2,-3.7,30.23,WSW,243,0.0,1.0,66,0.00,,,0.00,Wunderground v.1.15,2014-01-24 23:11:00,
2014-01-24 18:12:00,5.2,-3.7,30.23,WSW,243,0.0,1.0,66,0.00,,,0.00,Wunderground v.1.15,2014-01-24 23:12:00,
2014-01-24 18:14:00,5.2,-3.7,30.23,WSW,243,0.0,1.0,66,0.00,,,0.00,Wunderground v.1.15,2014-01-24 23:14:00,
2014-01-24 18:15:00,5.2,-3.7,30.23,WSW,244,0.0,1.0,66,0.00,,,0.00,Wunderground v.1.15,2014-01-24 23:15:00,
2014-01-24 18:16:00,5.2,-3.7,30.23,WSW,243,0.0,1.0,66,0.00,,,0.00,Wunderground v.1.15,2014-01-24 23:16:00,
2014-01-24 18:17:00,5.1,-3.8,30.23,WSW,244,0.0,1.0,66,0.00,,,0.00,Wunderground v.1.15,2014-01-24 23:17:00,
2014-01-24 18:19:00,5.1,-3.8,30.23,WSW,243,0.0,1.0,66,0.00,,,0.00,Wunderground v.1.15,2014-01-24 23:19:00,
2014-01-24 18:20:00,5.1,-3.8,30.23,WSW,243,0.0,1.0,66,0.00,,,0.00,Wunderground v.1.15,2014-01-24 23:20:00,
2014-01-24 18:22:00,5.0,-3.9,30.23,WSW,243,1.0,1.0,66,0.00,,,0.00,Wunderground v.1.15,2014-01-24 23:22:00,
2014-01-24 18:24:00,4.9,-3.7,30.23,WSW,243,0.0,1.0,67,0.00,,,0.00,Wunderground v.1.15,2014-01-24 23:24:00,
2014-01-24 18:26:00,4.9,-4.0,30.23,WSW,243,0.0,1.0,66,0.00,,,0.00,Wunderground v.1.15,2014-01-24 23:26:00,
2014-01-24 18:27:00,4.8,-3.8,30.23,WSW,243,0.0,1.0,67,0.00,,,0.00,Wunderground v.1.15,2014-01-24 23:27:00,
2014-01-24 18:28:00,4.8,-3.8,30.23,WSW,243,0.0,1.0,67,0.00,,,0.00,Wunderground v.1.15,2014-01-24 23:28:00,
2014-01-24 18:30:00,4.7,-3.9,30.23,WSW,244,0.0,1.0,67,0.00,,,0.00,Wunderground v.1.15,2014-01-24 23:30:00,
2014-01-24 18:31:00,4.7,-3.9,30.23,WSW,243,0.0,0.0,67,0.00,,,0.00,Wunderground v.1.15,2014-01-24 23:31:00,
2014-01-24 18:32:00,4.6,-4.0,30.23,WSW,243,0.0,0.0,67,0.00,,,0.00,Wunderground v.1.15,2014-01-24 23:32:00,
2014-01-24 18:33:00,4.6,-4.0,30.23,WSW,243,0.0,0.0,67,0.00,,,0.00,Wunderground v.1.15,2014-01-24 23:33:00,
2014-01-24 18:34:00,4.6,-4.0,30.23,WSW,244,0.0,0.0,67,0.00,,,0.00,Wunderground v.1.15,2014-01-24 23:34:00,
2014-01-24 18:35:00,4.6,-3.6,30.23,WSW,243,0.0,0.0,68,0.00,,,0.00,Wunderground v.1.15,2014-01-24 23:35:00,
2014-01-24 18:36:00,4.5,-3.7,30.23,WSW,243,0.0,0.0,68,0.00,,,0.00,Wunderground v.1.15,2014-01-24 23:36:00,
2014-01-24 18:37:00,4.5,-3.7,30.23,WSW,243,0.0,0.0,68,0.00,,,0.00,Wunderground v.1.15,2014-01-24 23:37:00,
2014-01-24 18:38:00,4.4,-3.8,30.23,WSW,243,0.0,0.0,68,0.00,,,0.00,Wunderground v.1.15,2014-01-24 23:38:00,
2014-01-24 18:39:00,4.4,-3.8,30.23,WSW,243,0.0,0.0,68,0.00,,,0.00,Wunderground v.1.15,2014-01-24 23:39:00,
2014-01-24 18:41:00,4.3,-3.9,30.23,WSW,243,0.0,0.0,68,0.00,,,0.00,Wunderground v.1.15,2014-01-24 23:41:00,
2014-01-24 18:42:00,4.2,-4.0,30.23,WSW,243,0.0,0.0,68,0.00,,,0.00,Wunderground v.1.15,2014-01-24 23:42:00,
2014-01-24 18:43:00,4.1,-3.8,30.23,WSW,243,0.0,0.0,69,0.00,,,0.00,Wunderground v.1.15,2014-01-24 23:43:00,
2014-01-24 18:44:00,4.1,-3.8,30.23,WSW,243,0.0,1.0,69,0.00,,,0.00,Wunderground v.1.15,2014-01-24 23:44:00,
2014-01-24 18:46:00,4.0,-3.9,30.23,WSW,243,1.0,1.0,69,0.00,,,0.00,Wunderground v.1.15,2014-01-24 23:46:00,
2014-01-24 18:47:00,3.9,-3.7,30.23,WSW,244,0.0,1.0,70,0.00,,,0.00,Wunderground v.1.15,2014-01-24 23:47:00,
2014-01-24 18:48:00,3.9,-3.7,30.23,WSW,244,0.0,1.0,70,0.00,,,0.00,Wunderground v.1.15,2014-01-24 23:48:00,
2014-01-24 18:49:00,3.9,-3.7,30.23,WSW,243,0.0,1.0,70,0.00,,,0.00,Wunderground v.1.15,2014-01-24 23:49:00,
2014-01-24 18:51:00,3.8,-3.8,30.23,WSW,243,1.0,1.0,70,0.00,,,0.00,Wunderground v.1.15,2014-01-24 23:51:00,
2014-01-24 18:52:00,3.8,-3.8,30.23,WSW,243,0.0,1.0,70,0.00,,,0.00,Wunderground v.1.15,2014-01-24 23:52:00,
2014-01-24 18:53:00,3.8,-3.8,30.23,WSW,243,1.0,1.0,70,0.00,,,0.00,Wunderground v.1.15,2014-01-24 23:53:00,
2014-01-24 18:54:00,3.8,-3.5,30.23,WSW,243,1.0,1.0,71,0.00,,,0.00,Wunderground v.1.15,2014-01-24 23:54:00,
2014-01-24 18:56:00,3.8,-3.5,30.23,WSW,243,0.0,1.0,71,0.00,,,0.00,Wunderground v.1.15,2014-01-24 23:56:00,
2014-01-24 18:57:00,3.7,-3.6,30.23,WSW,244,1.0,1.0,71,0.00,,,0.00,Wunderground v.1.15,2014-01-24 23:57:00,
2014-01-24 18:58:00,3.7,-3.6,30.23,WSW,244,0.0,1.0,71,0.00,,,0.00,Wunderground v.1.15,2014-01-24 23:58:00,
2014-01-24 19:01:00,3.7,-3.9,30.22,WSW,244,0.0,0.0,70,0.00,,,0.00,Wunderground v.1.15,2014-01-25 00:01:00,
2014-01-24 19:02:00,3.7,-3.6,30.22,WSW,244,1.0,1.0,71,0.00,,,0.00,Wunderground v.1.15,2014-01-25 00:02:00,
2014-01-24 19:03:00,3.7,-3.3,30.22,WSW,244,1.0,1.0,72,0.00,,,0.00,Wunderground v.1.15,2014-01-25 00:03:00,
2014-01-24 19:06:00,3.7,-3.3,30.22,WSW,252,1.0,2.0,72,0.00,,,0.00,Wunderground v.1.15,2014-01-25 00:06:00,
2014-01-24 19:07:00,3.7,-3.3,30.22,WSW,252,1.0,2.0,72,0.00,,,0.00,Wunderground v.1.15,2014-01-25 00:07:00,
2014-01-24 19:08:00,3.7,-3.3,30.22,WSW,250,0.0,2.0,72,0.00,,,0.00,Wunderground v.1.15,2014-01-25 00:08:00,
2014-01-24 19:09:00,3.7,-3.3,30.22,SW,236,1.0,2.0,72,0.00,,,0.00,Wunderground v.1.15,2014-01-25 00:09:00,
2014-01-24 19:12:00,3.7,-3.3,30.22,SW,231,0.0,1.0,72,0.00,,,0.00,Wunderground v.1.15,2014-01-25 00:12:00,
2014-01-24 19:13:00,3.7,-3.3,30.22,SW,231,0.0,1.0,72,0.00,,,0.00,Wunderground v.1.15,2014-01-25 00:13:00,
2014-01-24 19:14:00,3.8,-3.2,30.22,SW,231,1.0,1.0,72,0.00,,,0.00,Wunderground v.1.15,2014-01-25 00:14:00,
2014-01-24 19:15:00,3.8,-3.2,30.22,SW,232,1.0,1.0,72,0.00,,,0.00,Wunderground v.1.15,2014-01-25 00:15:00,
2014-01-24 19:17:00,3.8,-3.2,30.22,SW,232,1.0,1.0,72,0.00,,,0.00,Wunderground v.1.15,2014-01-25 00:17:00,
2014-01-24 19:18:00,3.8,-3.2,30.21,WSW,239,1.0,1.0,72,0.00,,,0.00,Wunderground v.1.15,2014-01-25 00:18:00,
2014-01-24 19:19:00,3.9,-3.1,30.21,SW,231,1.0,1.0,72,0.00,,,0.00,Wunderground v.1.15,2014-01-25 00:19:00,
2014-01-24 19:20:00,3.9,-3.1,30.21,SW,232,1.0,1.0,72,0.00,,,0.00,Wunderground v.1.15,2014-01-25 00:20:00,
2014-01-24 19:22:00,4.1,-3.2,30.21,West,263,0.0,2.0,71,0.00,,,0.00,Wunderground v.1.15,2014-01-25 00:22:00,
2014-01-24 19:23:00,4.1,-3.2,30.21,West,263,0.0,2.0,71,0.00,,,0.00,Wunderground v.1.15,2014-01-25 00:23:00,
2014-01-24 19:25:00,4.2,-3.1,30.21,WSW,239,1.0,2.0,71,0.00,,,0.00,Wunderground v.1.15,2014-01-25 00:25:00,
2014-01-24 19:28:00,4.2,-2.8,30.21,WSW,239,0.0,2.0,72,0.00,,,0.00,Wunderground v.1.15,2014-01-25 00:28:00,
2014-01-24 19:30:00,4.2,-2.8,30.21,WSW,240,0.0,0.0,72,0.00,,,0.00,Wunderground v.1.15,2014-01-25 00:30:00,
2014-01-24 19:31:00,4.2,-2.8,30.21,WSW,239,0.0,0.0,72,0.00,,,0.00,Wunderground v.1.15,2014-01-25 00:31:00,
2014-01-24 19:33:00,4.2,-2.8,30.21,WSW,240,0.0,1.0,72,0.00,,,0.00,Wunderground v.1.15,2014-01-25 00:33:00,
2014-01-24 19:35:00,4.1,-2.6,30.21,WSW,240,0.0,1.0,73,0.00,,,0.00,Wunderground v.1.15,2014-01-25 00:35:00,
2014-01-24 19:36:00,4.1,-2.9,30.21,WSW,239,0.0,1.0,72,0.00,,,0.00,Wunderground v.1.15,2014-01-25 00:36:00,
2014-01-24 19:38:00,4.1,-2.6,30.21,WSW,239,1.0,1.0,73,0.00,,,0.00,Wunderground v.1.15,2014-01-25 00:38:00,
2014-01-24 19:39:00,4.1,-2.9,30.21,WSW,243,1.0,1.0,72,0.00,,,0.00,Wunderground v.1.15,2014-01-25 00:39:00,
2014-01-24 19:40:00,4.1,-2.9,30.21,WSW,244,0.0,1.0,72,0.00,,,0.00,Wunderground v.1.15,2014-01-25 00:40:00,
2014-01-24 19:41:00,4.2,-2.8,30.21,WSW,243,0.0,1.0,72,0.00,,,0.00,Wunderground v.1.15,2014-01-25 00:41:00,
2014-01-24 19:43:00,4.3,-3.0,30.20,WSW,243,0.0,1.0,71,0.00,,,0.00,Wunderground v.1.15,2014-01-25 00:43:00,
2014-01-24 19:44:00,4.3,-3.0,30.21,WSW,243,1.0,1.0,71,0.00,,,0.00,Wunderground v.1.15,2014-01-25 00:44:00,
2014-01-24 19:45:00,4.3,-3.0,30.21,WSW,243,1.0,1.0,71,0.00,,,0.00,Wunderground v.1.15,2014-01-25 00:45:00,
2014-01-24 19:46:00,4.4,-2.9,30.21,WSW,243,0.0,1.0,71,0.00,,,0.00,Wunderground v.1.15,2014-01-25 00:46:00,
2014-01-24 19:48:00,4.4,-2.9,30.20,WSW,244,1.0,1.0,71,0.00,,,0.00,Wunderground v.1.15,2014-01-25 00:48:00,
2014-01-24 19:49:00,4.4,-2.9,30.20,WSW,243,0.0,1.0,71,0.00,,,0.00,Wunderground v.1.15,2014-01-25 00:49:00,
2014-01-24 19:50:00,4.4,-2.9,30.20,WSW,244,0.0,0.0,71,0.00,,,0.00,Wunderground v.1.15,2014-01-25 00:50:00,
2014-01-24 19:51:00,4.4,-2.9,30.20,WSW,243,1.0,1.0,71,0.00,,,0.00,Wunderground v.1.15,2014-01-25 00:51:00,
2014-01-24 19:53:00,4.4,-2.9,30.20,West,280,2.0,2.0,71,0.00,,,0.00,Wunderground v.1.15,2014-01-25 00:53:00,
2014-01-24 19:54:00,4.5,-2.8,30.20,SW,219,1.0,2.0,71,0.00,,,0.00,Wunderground v.1.15,2014-01-25 00:54:00,
2014-01-24 19:55:00,4.5,-2.8,30.20,SSW,210,0.0,2.0,71,0.00,,,0.00,Wunderground v.1.15,2014-01-25 00:55:00,
2014-01-24 19:57:00,4.6,-2.7,30.20,SSW,211,0.0,2.0,71,0.00,,,0.00,Wunderground v.1.15,2014-01-25 00:57:00,
2014-01-24 19:59:00,4.5,-2.5,30.20,SSW,212,1.0,2.0,72,0.00,,,0.00,Wunderground v.1.15,2014-01-25 00:59:00,
2014-01-24 20:00:00,4.6,-2.4,30.20,SSW,211,0.0,2.0,72,0.00,,,0.00,Wunderground v.1.15,2014-01-25 01:00:00,
2014-01-24 20:01:00,4.6,-2.4,30.20,SSW,211,0.0,1.0,72,0.00,,,0.00,Wunderground v.1.15,2014-01-25 01:01:00,
2014-01-24 20:02:00,4.6,-2.4,30.20,SSW,211,1.0,1.0,72,0.00,,,0.00,Wunderground v.1.15,2014-01-25 01:02:00,
2014-01-24 20:04:00,4.6,-2.4,30.19,SSW,212,1.0,1.0,72,0.00,,,0.00,Wunderground v.1.15,2014-01-25 01:04:00,
2014-01-24 20:05:00,4.7,-2.6,30.20,SSW,212,0.0,1.0,71,0.00,,,0.00,Wunderground v.1.15,2014-01-25 01:05:00,
2014-01-24 20:07:00,4.8,-2.5,30.19,SSW,211,0.0,1.0,71,0.00,,,0.00,Wunderground v.1.15,2014-01-25 01:07:00,
2014-01-24 20:09:00,4.8,-2.5,30.19,SW,216,1.0,1.0,71,0.00,,,0.00,Wunderground v.1.15,2014-01-25 01:09:00,
2014-01-24 20:10:00,4.8,-2.5,30.19,SW,215,1.0,1.0,71,0.00,,,0.00,Wunderground v.1.15,2014-01-25 01:10:00,
2014-01-24 20:12:00,4.9,-2.5,30.19,SW,215,0.0,1.0,71,0.00,,,0.00,Wunderground v.1.15,2014-01-25 01:12:00,
2014-01-24 20:14:00,5.0,-2.4,30.19,WSW,239,0.0,2.0,71,0.00,,,0.00,Wunderground v.1.15,2014-01-25 01:14:00,
2014-01-24 20:15:00,5.0,-2.4,30.19,WSW,239,1.0,2.0,71,0.00,,,0.00,Wunderground v.1.15,2014-01-25 01:15:00,
2014-01-24 20:17:00,5.2,-2.2,30.18,WSW,246,1.0,2.0,71,0.00,,,0.00,Wunderground v.1.15,2014-01-25 01:17:00,
2014-01-24 20:19:00,5.3,-2.4,30.18,WSW,252,2.0,2.0,70,0.00,,,0.00,Wunderground v.1.15,2014-01-25 01:19:00,
2014-01-24 20:20:00,5.3,-2.4,30.18,WSW,239,3.0,3.0,70,0.00,,,0.00,Wunderground v.1.15,2014-01-25 01:20:00,
2014-01-24 20:22:00,5.6,-2.1,30.18,WSW,248,3.0,3.0,70,0.00,,,0.00,Wunderground v.1.15,2014-01-25 01:22:00,
2014-01-24 20:23:00,5.6,-2.1,30.18,West,279,3.0,3.0,70,0.00,,,0.00,Wunderground v.1.15,2014-01-25 01:23:00,
2014-01-24 20:25:00,5.7,-2.0,30.18,WSW,243,3.0,3.0,70,0.00,,,0.00,Wunderground v.1.15,2014-01-25 01:25:00,
2014-01-24 20:26:00,5.9,-1.8,30.18,West,259,3.0,3.0,70,0.00,,,0.00,Wunderground v.1.15,2014-01-25 01:26:00,
2014-01-24 20:27:00,6.1,-1.9,30.18,SW,224,1.0,3.0,69,0.00,,,0.00,Wunderground v.1.15,2014-01-25 01:27:00,
2014-01-24 20:28:00,6.1,-1.9,30.18,WSW,252,2.0,3.0,69,0.00,,,0.00,Wunderground v.1.15,2014-01-25 01:28:00,
2014-01-24 20:30:00,6.2,-1.8,30.18,SW,214,1.0,3.0,69,0.00,,,0.00,Wunderground v.1.15,2014-01-25 01:30:00,
2014-01-24 20:31:00,6.3,-1.7,30.18,SW,228,1.0,3.0,69,0.00,,,0.00,Wunderground v.1.15,2014-01-25 01:31:00,
2014-01-24 20:33:00,6.4,-1.6,30.18,WSW,257,1.0,3.0,69,0.00,,,0.00,Wunderground v.1.15,2014-01-25 01:33:00,
2014-01-24 20:35:00,6.5,-1.5,30.18,West,263,1.0,3.0,69,0.00,,,0.00,Wunderground v.1.15,2014-01-25 01:35:00,
2014-01-24 20:36:00,6.6,-1.4,30.18,South,183,1.0,3.0,69,0.00,,,0.00,Wunderground v.1.15,2014-01-25 01:36:00,
2014-01-24 20:37:00,6.6,-1.4,30.18,SW,228,2.0,3.0,69,0.00,,,0.00,Wunderground v.1.15,2014-01-25 01:37:00,
2014-01-24 20:38:00,6.7,-1.3,30.17,SW,228,2.0,3.0,69,0.00,,,0.00,Wunderground v.1.15,2014-01-25 01:38:00,
2014-01-24 20:39:00,6.7,-1.3,30.17,WSW,239,1.0,3.0,69,0.00,,,0.00,Wunderground v.1.15,2014-01-25 01:39:00,
2014-01-24 20:40:00,6.8,-1.8,30.17,West,280,2.0,3.0,67,0.00,,,0.00,Wunderground v.1.15,2014-01-25 01:40:00,
2014-01-24 20:41:00,6.9,-1.8,30.17,SSW,212,1.0,3.0,67,0.00,,,0.00,Wunderground v.1.15,2014-01-25 01:41:00,
2014-01-24 20:42:00,6.9,-1.8,30.17,SW,225,2.0,4.0,67,0.00,,,0.00,Wunderground v.1.15,2014-01-25 01:42:00,
2014-01-24 20:43:00,7.0,-1.7,30.17,West,259,2.0,4.0,67,0.00,,,0.00,Wunderground v.1.15,2014-01-25 01:43:00,
2014-01-24 20:44:00,7.0,-1.7,30.17,West,259,1.0,4.0,67,0.00,,,0.00,Wunderground v.1.15,2014-01-25 01:44:00,
2014-01-24 20:45:00,7.1,-1.9,30.17,West,259,0.0,4.0,66,0.00,,,0.00,Wunderground v.1.15,2014-01-25 01:45:00,
2014-01-24 20:46:00,7.2,-1.5,30.17,West,259,1.0,4.0,67,0.00,,,0.00,Wunderground v.1.15,2014-01-25 01:46:00,
2014-01-24 20:47:00,7.2,-1.5,30.17,SW,226,2.0,4.0,67,0.00,,,0.00,Wunderground v.1.15,2014-01-25 01:47:00,
2014-01-24 20:49:00,7.3,-1.7,30.17,SW,236,4.0,8.0,66,0.00,,,0.00,Wunderground v.1.15,2014-01-25 01:49:00,
2014-01-24 20:50:00,7.4,-1.9,30.17,WSW,238,1.0,2.0,65,0.00,,,0.00,Wunderground v.1.15,2014-01-25 01:50:00,
2014-01-24 20:51:00,7.4,-1.9,30.17,WSW,246,1.0,2.0,65,0.00,,,0.00,Wunderground v.1.15,2014-01-25 01:51:00,
2014-01-24 20:52:00,7.4,-1.9,30.17,WSW,246,1.0,2.0,65,0.00,,,0.00,Wunderground v.1.15,2014-01-25 01:52:00,
2014-01-24 20:53:00,7.5,-1.8,30.17,South,183,1.0,7.0,65,0.00,,,0.00,Wunderground v.1.15,2014-01-25 01:53:00,
2014-01-24 20:54:00,7.5,-1.8,30.17,WNW,298,2.0,7.0,65,0.00,,,0.00,Wunderground v.1.15,2014-01-25 01:54:00,
2014-01-24 20:55:00,7.6,-1.7,30.17,WNW,285,2.0,7.0,65,0.00,,,0.00,Wunderground v.1.15,2014-01-25 01:55:00,
2014-01-24 20:56:00,7.6,-1.7,30.17,WSW,257,2.0,7.0,65,0.00,,,0.00,Wunderground v.1.15,2014-01-25 01:56:00,
2014-01-24 20:57:00,7.7,-2.0,30.17,South,183,0.0,7.0,64,0.00,,,0.00,Wunderground v.1.15,2014-01-25 01:57:00,
2014-01-24 20:58:00,7.7,-1.6,30.17,WSW,252,1.0,7.0,65,0.00,,,0.00,Wunderground v.1.15,2014-01-25 01:58:00,
2014-01-24 20:59:00,7.7,-1.6,30.17,SW,231,2.0,7.0,65,0.00,,,0.00,Wunderground v.1.15,2014-01-25 01:59:00,
2014-01-24 21:01:00,7.8,-1.5,30.17,SSW,211,0.0,2.0,65,0.00,,,0.00,Wunderground v.1.15,2014-01-25 02:01:00,
2014-01-24 21:04:00,7.8,-1.5,30.16,SW,221,1.0,3.0,65,0.00,,,0.00,Wunderground v.1.15,2014-01-25 02:04:00,
2014-01-24 21:05:00,7.9,-1.4,30.16,SW,226,0.0,3.0,65,0.00,,,0.00,Wunderground v.1.15,2014-01-25 02:05:00,
2014-01-24 21:06:00,7.9,-1.4,30.16,SW,235,1.0,3.0,65,0.00,,,0.00,Wunderground v.1.15,2014-01-25 02:06:00,
2014-01-24 21:07:00,7.9,-1.4,30.16,WSW,246,2.0,3.0,65,0.00,,,0.00,Wunderground v.1.15,2014-01-25 02:07:00,
2014-01-24 21:09:00,8.0,-1.7,30.16,SSW,211,3.0,3.0,64,0.00,,,0.00,Wunderground v.1.15,2014-01-25 02:09:00,
2014-01-24 21:10:00,8.0,-1.7,30.16,WNW,283,6.0,8.0,64,0.00,,,0.00,Wunderground v.1.15,2014-01-25 02:10:00,
2014-01-24 21:11:00,8.1,-1.9,30.16,SW,217,2.0,8.0,63,0.00,,,0.00,Wunderground v.1.15,2014-01-25 02:11:00,
2014-01-24 21:12:00,8.1,-1.9,30.16,South,183,5.0,8.0,63,0.00,,,0.00,Wunderground v.1.15,2014-01-25 02:12:00,
2014-01-24 21:14:00,8.3,-1.7,30.16,West,259,2.0,8.0,63,0.00,,,0.00,Wunderground v.1.15,2014-01-25 02:14:00,
2014-01-24 21:15:00,8.3,-1.4,30.16,West,262,1.0,8.0,64,0.00,,,0.00,Wunderground v.1.15,2014-01-25 02:15:00,
2014-01-24 21:16:00,8.3,-1.7,30.16,West,272,1.0,8.0,63,0.00,,,0.00,Wunderground v.1.15,2014-01-25 02:16:00,
2014-01-24 21:17:00,8.4,-1.6,30.16,SW,233,1.0,8.0,63,0.00,,,0.00,Wunderground v.1.15,2014-01-25 02:17:00,
2014-01-24 21:20:00,8.5,-1.5,30.16,WSW,240,1.0,2.0,63,0.00,,,0.00,Wunderground v.1.15,2014-01-25 02:20:00,
2014-01-24 21:21:00,8.5,-1.9,30.15,WSW,256,3.0,5.0,62,0.00,,,0.00,Wunderground v.1.15,2014-01-25 02:21:00,
2014-01-24 21:22:00,8.5,-1.9,30.15,WSW,256,0.0,5.0,62,0.00,,,0.00,Wunderground v.1.15,2014-01-25 02:22:00,
2014-01-24 21:25:00,8.6,-1.8,30.15,WNW,288,3.0,5.0,62,0.00,,,0.00,Wunderground v.1.15,2014-01-25 02:25:00,
2014-01-24 21:26:00,8.7,-2.0,30.15,SW,219,1.0,5.0,61,0.00,,,0.00,Wunderground v.1.15,2014-01-25 02:26:00,
2014-01-24 21:27:00,8.7,-2.0,30.15,SW,233,1.0,5.0,61,0.00,,,0.00,Wunderground v.1.15,2014-01-25 02:27:00,
2014-01-24 21:30:00,8.8,-1.9,30.15,WSW,246,3.0,4.0,61,0.00,,,0.00,Wunderground v.1.15,2014-01-25 02:30:00,
2014-01-24 21:31:00,8.8,-1.9,30.15,West,269,2.0,5.0,61,0.00,,,0.00,Wunderground v.1.15,2014-01-25 02:31:00,
2014-01-24 21:32:00,8.8,-1.9,30.15,SW,229,2.0,5.0,61,0.00,,,0.00,Wunderground v.1.15,2014-01-25 02:32:00,
2014-01-24 21:35:00,8.8,-1.6,30.15,WSW,246,1.0,6.0,62,0.00,,,0.00,Wunderground v.1.15,2014-01-25 02:35:00,
2014-01-24 21:36:00,8.9,-1.5,30.15,WSW,255,3.0,6.0,62,0.00,,,0.00,Wunderground v.1.15,2014-01-25 02:36:00,
2014-01-24 21:37:00,8.9,-1.5,30.15,South,189,2.0,6.0,62,0.00,,,0.00,Wunderground v.1.15,2014-01-25 02:37:00,
2014-01-24 21:41:00,8.9,-1.5,30.15,South,184,5.0,7.0,62,0.00,,,0.00,Wunderground v.1.15,2014-01-25 02:41:00,
2014-01-24 21:42:00,8.9,-1.5,30.15,WSW,257,2.0,7.0,62,0.00,,,0.00,Wunderground v.1.15,2014-01-25 02:42:00,
2014-01-24 21:46:00,8.9,-1.8,30.14,SSE,167,3.0,7.0,61,0.00,,,0.00,Wunderground v.1.15,2014-01-25 02:46:00,
2014-01-24 21:47:00,8.9,-1.8,30.14,SSE,167,2.0,7.0,61,0.00,,,0.00,Wunderground v.1.15,2014-01-25 02:47:00,
2014-01-24 21:48:00,9.0,-2.1,30.14,West,264,3.0,7.0,60,0.00,,,0.00,Wunderground v.1.15,2014-01-25 02:48:00,
2014-01-24 21:52:00,9.0,-1.4,30.14,WSW,243,2.0,4.0,62,0.00,,,0.00,Wunderground v.1.15,2014-01-25 02:52:00,
2014-01-24 21:53:00,8.9,-1.5,30.13,West,262,1.0,5.0,62,0.00,,,0.00,Wunderground v.1.15,2014-01-25 02:53:00,
2014-01-24 21:57:00,9.0,-1.7,30.13,SW,225,2.0,5.0,61,0.00,,,0.00,Wunderground v.1.15,2014-01-25 02:57:00,
2014-01-24 21:58:00,8.9,-1.8,30.13,South,183,1.0,5.0,61,0.00,,,0.00,Wunderground v.1.15,2014-01-25 02:58:00,
2014-01-24 22:02:00,9.0,-1.7,30.13,SW,225,1.0,6.0,61,0.00,,,0.00,Wunderground v.1.15,2014-01-25 03:02:00,
2014-01-24 22:03:00,9.0,-1.4,30.13,South,183,2.0,6.0,62,0.00,,,0.00,Wunderground v.1.15,2014-01-25 03:03:00,
2014-01-24 22:04:00,9.0,-1.4,30.13,West,263,1.0,6.0,62,0.00,,,0.00,Wunderground v.1.15,2014-01-25 03:04:00,
2014-01-24 22:07:00,8.9,-1.5,30.13,South,183,1.0,6.0,62,0.00,,,0.00,Wunderground v.1.15,2014-01-25 03:07:00,
2014-01-24 22:08:00,9.0,-1.7,30.13,SW,216,3.0,6.0,61,0.00,,,0.00,Wunderground v.1.15,2014-01-25 03:08:00,
2014-01-24 22:09:00,9.0,-1.7,30.13,West,269,3.0,6.0,61,0.00,,,0.00,Wunderground v.1.15,2014-01-25 03:09:00,
2014-01-24 22:12:00,9.0,-1.7,30.13,WNW,290,1.0,3.0,61,0.00,,,0.00,Wunderground v.1.15,2014-01-25 03:12:00,
2014-01-24 22:13:00,9.0,-1.7,30.13,NW,321,1.0,3.0,61,0.00,,,0.00,Wunderground v.1.15,2014-01-25 03:13:00,
2014-01-24 22:14:00,9.0,-1.7,30.13,WSW,257,4.0,6.0,61,0.00,,,0.00,Wunderground v.1.15,2014-01-25 03:14:00,
2014-01-24 22:15:00,9.0,-1.7,30.13,SW,222,2.0,6.0,61,0.00,,,0.00,Wunderground v.1.15,2014-01-25 03:15:00,
2014-01-24 22:17:00,9.1,-1.6,30.12,SW,228,2.0,6.0,61,0.00,,,0.00,Wunderground v.1.15,2014-01-25 03:17:00,
2014-01-24 22:18:00,9.1,-1.6,30.12,SW,228,2.0,6.0,61,0.00,,,0.00,Wunderground v.1.15,2014-01-25 03:18:00,
2014-01-24 22:19:00,9.1,-1.6,30.12,NW,319,1.0,6.0,61,0.00,,,0.00,Wunderground v.1.15,2014-01-25 03:19:00,
2014-01-24 22:20:00,9.1,-1.6,30.12,SSE,167,2.0,4.0,61,0.00,,,0.00,Wunderground v.1.15,2014-01-25 03:20:00,
2014-01-24 22:22:00,9.1,-1.6,30.12,SSE,167,1.0,4.0,61,0.00,,,0.00,Wunderground v.1.15,2014-01-25 03:22:00,
2014-01-24 22:23:00,9.1,-1.6,30.12,SSE,167,3.0,4.0,61,0.00,,,0.00,Wunderground v.1.15,2014-01-25 03:23:00,
2014-01-24 22:24:00,9.1,-1.6,30.12,SSE,167,3.0,5.0,61,0.00,,,0.00,Wunderground v.1.15,2014-01-25 03:24:00,
2014-01-24 22:25:00,9.1,-1.6,30.12,SSE,167,4.0,5.0,61,0.00,,,0.00,Wunderground v.1.15,2014-01-25 03:25:00,
2014-01-24 22:27:00,9.2,-1.5,30.12,SSE,167,1.0,6.0,61,0.00,,,0.00,Wunderground v.1.15,2014-01-25 03:27:00,
2014-01-24 22:28:00,9.1,-1.6,30.11,SSE,167,0.0,6.0,61,0.00,,,0.00,Wunderground v.1.15,2014-01-25 03:28:00,
2014-01-24 22:29:00,9.1,-1.3,30.11,SSE,167,2.0,6.0,62,0.00,,,0.00,Wunderground v.1.15,2014-01-25 03:29:00,
2014-01-24 22:30:00,9.1,-1.3,30.11,SSE,168,1.0,2.0,62,0.00,,,0.00,Wunderground v.1.15,2014-01-25 03:30:00,
2014-01-24 22:31:00,9.1,-1.3,30.11,SSE,167,3.0,3.0,62,0.00,,,0.00,Wunderground v.1.15,2014-01-25 03:31:00,
2014-01-24 22:32:00,9.1,-1.3,30.11,SSE,167,5.0,5.0,62,0.00,,,0.00,Wunderground v.1.15,2014-01-25 03:32:00,
2014-01-24 22:34:00,9.1,-1.6,30.12,SSE,160,2.0,6.0,61,0.00,,,0.00,Wunderground v.1.15,2014-01-25 03:34:00,
2014-01-24 22:35:00,9.1,-1.6,30.11,SSE,167,2.0,6.0,61,0.00,,,0.00,Wunderground v.1.15,2014-01-25 03:35:00,
2014-01-24 22:36:00,9.2,-1.5,30.12,NW,314,5.0,7.0,61,0.00,,,0.00,Wunderground v.1.15,2014-01-25 03:36:00,
2014-01-24 22:37:00,9.2,-1.2,30.11,West,274,2.0,7.0,62,0.00,,,0.00,Wunderground v.1.15,2014-01-25 03:37:00,
2014-01-24 22:39:00,9.2,-1.2,30.11,SSW,204,1.0,7.0,62,0.00,,,0.00,Wunderground v.1.15,2014-01-25 03:39:00,
2014-01-24 22:40:00,9.1,-1.3,30.10,SW,235,3.0,3.0,62,0.00,,,0.00,Wunderground v.1.15,2014-01-25 03:40:00,
2014-01-24 22:41:00,9.1,-1.6,30.10,West,262,4.0,4.0,61,0.00,,,0.00,Wunderground v.1.15,2014-01-25 03:41:00,
2014-01-24 22:43:00,9.1,-1.6,30.10,West,266,2.0,5.0,61,0.00,,,0.00,Wunderground v.1.15,2014-01-25 03:43:00,
2014-01-24 22:44:00,9.1,-1.3,30.10,SSW,211,4.0,5.0,62,0.00,,,0.00,Wunderground v.1.15,2014-01-25 03:44:00,
2014-01-24 22:45:00,9.1,-1.6,30.10,West,269,4.0,5.0,61,0.00,,,0.00,Wunderground v.1.15,2014-01-25 03:45:00,
2014-01-24 22:46:00,9.1,-1.6,30.10,West,276,10.0,10.0,61,0.00,,,0.00,Wunderground v.1.15,2014-01-25 03:46:00,
2014-01-24 22:47:00,9.1,-1.6,30.10,SW,232,2.0,10.0,61,0.00,,,0.00,Wunderground v.1.15,2014-01-25 03:47:00,
2014-01-24 22:48:00,9.2,-1.5,30.10,SSW,210,2.0,10.0,61,0.00,,,0.00,Wunderground v.1.15,2014-01-25 03:48:00,
2014-01-24 22:49:00,9.2,-1.5,30.10,WNW,290,2.0,10.0,61,0.00,,,0.00,Wunderground v.1.15,2014-01-25 03:49:00,
2014-01-24 22:51:00,9.2,-1.2,30.10,WSW,255,2.0,3.0,62,0.00,,,0.00,Wunderground v.1.15,2014-01-25 03:51:00,
2014-01-24 22:53:00,9.2,-1.2,30.11,WNW,285,6.0,7.0,62,0.00,,,0.00,Wunderground v.1.15,2014-01-25 03:53:00,
2014-01-24 22:54:00,9.2,-1.2,30.11,West,260,4.0,8.0,62,0.00,,,0.00,Wunderground v.1.15,2014-01-25 03:54:00,
2014-01-24 22:56:00,9.3,-1.4,30.11,SW,224,4.0,8.0,61,0.00,,,0.00,Wunderground v.1.15,2014-01-25 03:56:00,
2014-01-24 22:58:00,9.3,-1.4,30.10,WSW,245,1.0,8.0,61,0.00,,,0.00,Wunderground v.1.15,2014-01-25 03:58:00,
2014-01-24 22:59:00,9.3,-1.1,30.10,West,259,2.0,8.0,62,0.00,,,0.00,Wunderground v.1.15,2014-01-25 03:59:00,
2014-01-24 23:01:00,9.4,-1.4,30.10,WSW,252,2.0,3.0,61,0.00,,,0.00,Wunderground v.1.15,2014-01-25 04:01:00,
2014-01-24 23:02:00,9.4,-1.0,30.10,South,184,5.0,8.0,62,0.00,,,0.00,Wunderground v.1.15,2014-01-25 04:02:00,
2014-01-24 23:03:00,9.4,-1.0,30.10,SSW,207,5.0,9.0,62,0.00,,,0.00,Wunderground v.1.15,2014-01-25 04:03:00,
2014-01-24 23:04:00,9.4,-1.4,30.10,SW,231,4.0,9.0,61,0.00,,,0.00,Wunderground v.1.15,2014-01-25 04:04:00,
2014-01-24 23:05:00,9.4,-1.0,30.10,SSW,212,2.0,9.0,62,0.00,,,0.00,Wunderground v.1.15,2014-01-25 04:05:00,
2014-01-24 23:06:00,9.4,-1.4,30.10,WNW,283,3.0,9.0,61,0.00,,,0.00,Wunderground v.1.15,2014-01-25 04:06:00,
2014-01-24 23:07:00,9.4,-1.4,30.10,WSW,239,5.0,9.0,61,0.00,,,0.00,Wunderground v.1.15,2014-01-25 04:07:00,
2014-01-24 23:08:00,9.4,-1.4,30.10,SW,214,1.0,9.0,61,0.00,,,0.00,Wunderground v.1.15,2014-01-25 04:08:00,
2014-01-24 23:09:00,9.5,-1.3,30.10,SSW,203,2.0,9.0,61,0.00,,,0.00,Wunderground v.1.15,2014-01-25 04:09:00,
2014-01-24 23:10:00,9.4,-1.0,30.10,WSW,257,3.0,9.0,62,0.00,,,0.00,Wunderground v.1.15,2014-01-25 04:10:00,
2014-01-24 23:12:00,9.4,-1.0,30.10,WSW,250,3.0,6.0,62,0.00,,,0.00,Wunderground v.1.15,2014-01-25 04:12:00,
2014-01-24 23:13:00,9.4,-1.0,30.10,WSW,246,2.0,7.0,62,0.00,,,0.00,Wunderground v.1.15,2014-01-25 04:13:00,
2014-01-24 23:14:00,9.4,-1.0,30.10,WSW,239,3.0,7.0,62,0.00,,,0.00,Wunderground v.1.15,2014-01-25 04:14:00,
2014-01-24 23:17:00,9.4,-1.4,30.10,South,184,3.0,8.0,61,0.00,,,0.00,Wunderground v.1.15,2014-01-25 04:17:00,
2014-01-24 23:18:00,9.4,-1.0,30.10,WNW,288,2.0,8.0,62,0.00,,,0.00,Wunderground v.1.15,2014-01-25 04:18:00,
2014-01-24 23:19:00,9.4,-1.0,30.10,South,183,2.0,8.0,62,0.00,,,0.00,Wunderground v.1.15,2014-01-25 04:19:00,
2014-01-24 23:22:00,9.3,-1.4,30.09,SSE,167,2.0,5.0,61,0.00,,,0.00,Wunderground v.1.15,2014-01-25 04:22:00,
2014-01-24 23:23:00,9.3,-1.4,30.09,SSE,167,1.0,5.0,61,0.00,,,0.00,Wunderground v.1.15,2014-01-25 04:23:00,
2014-01-24 23:24:00,9.3,-1.4,30.09,SSE,167,3.0,5.0,61,0.00,,,0.00,Wunderground v.1.15,2014-01-25 04:24:00,
2014-01-24 23:28:00,9.2,-1.5,30.09,SSE,167,2.0,9.0,61,0.00,,,0.00,Wunderground v.1.15,2014-01-25 04:28:00,
2014-01-24 23:29:00,9.2,-1.5,30.09,SSE,167,3.0,9.0,61,0.00,,,0.00,Wunderground v.1.15,2014-01-25 04:29:00,
2014-01-24 23:30:00,9.2,-1.5,30.09,SSE,167,1.0,9.0,61,0.00,,,0.00,Wunderground v.1.15,2014-01-25 04:30:00,
2014-01-24 23:33:00,9.1,-1.3,30.09,SSE,167,2.0,4.0,62,0.00,,,0.00,Wunderground v.1.15,2014-01-25 04:33:00,
2014-01-24 23:34:00,9.0,-1.4,30.09,SSE,167,2.0,4.0,62,0.00,,,0.00,Wunderground v.1.15,2014-01-25 04:34:00,
2014-01-24 23:35:00,9.0,-1.4,30.09,SSE,167,2.0,6.0,62,0.00,,,0.00,Wunderground v.1.15,2014-01-25 04:35:00,
2014-01-24 23:38:00,8.9,-1.5,30.09,SSE,160,2.0,6.0,62,0.00,,,0.00,Wunderground v.1.15,2014-01-25 04:38:00,
2014-01-24 23:39:00,8.9,-1.5,30.09,SSE,167,2.0,6.0,62,0.00,,,0.00,Wunderground v.1.15,2014-01-25 04:39:00,
2014-01-24 23:40:00,8.8,-1.6,30.09,SSE,154,2.0,6.0,62,0.00,,,0.00,Wunderground v.1.15,2014-01-25 04:40:00,
2014-01-24 23:43:00,8.7,-1.7,30.08,SSE,167,4.0,5.0,62,0.00,,,0.00,Wunderground v.1.15,2014-01-25 04:43:00,
2014-01-24 23:44:00,8.7,-1.7,30.08,SSE,167,8.0,10.0,62,0.00,,,0.00,Wunderground v.1.15,2014-01-25 04:44:00,
2014-01-24 23:45:00,8.7,-1.7,30.08,SSE,167,3.0,10.0,62,0.00,,,0.00,Wunderground v.1.15,2014-01-25 04:45:00,
2014-01-24 23:48:00,8.7,-1.3,30.08,SSE,163,1.0,10.0,63,0.00,,,0.00,Wunderground v.1.15,2014-01-25 04:48:00,
2014-01-24 23:49:00,8.6,-1.4,30.08,SSE,167,2.0,10.0,63,0.00,,,0.00,Wunderground v.1.15,2014-01-25 04:49:00,
2014-01-24 23:50:00,8.6,-1.4,30.08,SSE,167,2.0,10.0,63,0.00,,,0.00,Wunderground v.1.15,2014-01-25 04:50:00,
2014-01-24 23:53:00,8.5,-1.5,30.08,SSE,167,3.0,5.0,63,0.00,,,0.00,Wunderground v.1.15,2014-01-25 04:53:00,
2014-01-24 23:54:00,8.5,-1.5,30.08,SSE,167,1.0,5.0,63,0.00,,,0.00,Wunderground v.1.15,2014-01-25 04:54:00,
2014-01-24 23:55:00,8.5,-1.5,30.08,SSE,167,2.0,5.0,63,0.00,,,0.00,Wunderground v.1.15,2014-01-25 04:55:00,
2014-01-24 23:58:00,8.4,-1.3,30.07,West,267,2.0,8.0,64,0.00,,,0.00,Wunderground v.1.15,2014-01-25 04:58:00,
2014-01-24 23:59:00,8.4,-1.3,30.07,SSW,204,3.0,8.0,64,0.00,,,0.00,Wunderground v.1.15,2014-01-25 04:59:00,